<?xml version='1.0' encoding='UTF-8'?><gpx version="1.1" creator="JPX - https://github.com/jenetics/jpx" xmlns="http://www.topografix.com/GPX/1/1"><trk><trkseg><trkpt lat="43.7785155" lon="11.2007416"><ele>39.166666666666664</ele><time>2026-05-04T17:05:39.388Z</time></trkpt><trkpt lat="43.7785783" lon="11.2007076"><ele>39.333333333333336</ele><time>2026-05-04T17:05:43.388Z</time></trkpt><trkpt lat="43.7786412" lon="11.2007302"><ele>39.5</ele><time>2026-05-04T17:05:45.388Z</time></trkpt><trkpt lat="43.7787137" lon="11.2007837"><ele>39.66666666666667</ele><time>2026-05-04T17:05:47.388Z</time></trkpt><trkpt lat="43.7787816" lon="11.2008543"><ele>39.833333333333336</ele><time>2026-05-04T17:05:49.388Z</time></trkpt><trkpt lat="43.7788465" lon="11.2009126"><ele>40.0</ele><time>2026-05-04T17:05:51.388Z</time></trkpt><trkpt lat="43.7789109" lon="11.2009599"><ele>40.0</ele><time>2026-05-04T17:05:53.388Z</time></trkpt><trkpt lat="43.7789683" lon="11.2010033"><ele>40.0</ele><time>2026-05-04T17:05:55.389Z</time></trkpt><trkpt lat="43.7790567" lon="11.201045"><ele>40.0</ele><time>2026-05-04T17:05:58.388Z</time></trkpt><trkpt lat="43.7791233" lon="11.2010833"><ele>40.0</ele><time>2026-05-04T17:06:00.388Z</time></trkpt><trkpt lat="43.7792067" lon="11.2011317"><ele>40.0</ele><time>2026-05-04T17:06:03.388Z</time></trkpt><trkpt lat="43.779265" lon="11.201165"><ele>40.0</ele><time>2026-05-04T17:06:05.388Z</time></trkpt><trkpt lat="43.7793433" lon="11.2012117"><ele>40.5</ele><time>2026-05-04T17:06:08.388Z</time></trkpt><trkpt lat="43.7794233" lon="11.2012583"><ele>41.0</ele><time>2026-05-04T17:06:11.388Z</time></trkpt><trkpt lat="43.779505" lon="11.2013067"><ele>41.5</ele><time>2026-05-04T17:06:14.388Z</time></trkpt><trkpt lat="43.779585" lon="11.2013533"><ele>42.0</ele><time>2026-05-04T17:06:17.388Z</time></trkpt><trkpt lat="43.7796633" lon="11.2013983"><ele>42.5</ele><time>2026-05-04T17:06:20.388Z</time></trkpt><trkpt lat="43.77974" lon="11.201445"><ele>43.0</ele><time>2026-05-04T17:06:23.388Z</time></trkpt><trkpt lat="43.7798133" lon="11.2014867"><ele>42.714285714285715</ele><time>2026-05-04T17:06:26.389Z</time></trkpt><trkpt lat="43.7798717" lon="11.2015217"><ele>42.42857142857143</ele><time>2026-05-04T17:06:28.388Z</time></trkpt><trkpt lat="43.779935" lon="11.2015517"><ele>42.14285714285714</ele><time>2026-05-04T17:06:30.388Z</time></trkpt><trkpt lat="43.78001" lon="11.2015833"><ele>41.85714285714286</ele><time>2026-05-04T17:06:32.388Z</time></trkpt><trkpt lat="43.7800733" lon="11.20163"><ele>41.57142857142857</ele><time>2026-05-04T17:06:36.389Z</time></trkpt><trkpt lat="43.7801333" lon="11.2016867"><ele>41.285714285714285</ele><time>2026-05-04T17:06:46.388Z</time></trkpt><trkpt lat="43.78019" lon="11.20176"><ele>41.0</ele><time>2026-05-04T17:06:49.388Z</time></trkpt><trkpt lat="43.7802683" lon="11.2018283"><ele>40.666666666666664</ele><time>2026-05-04T17:06:51.388Z</time></trkpt><trkpt lat="43.7803467" lon="11.201875"><ele>40.33333333333333</ele><time>2026-05-04T17:06:54.388Z</time></trkpt><trkpt lat="43.78041" lon="11.2019117"><ele>40.0</ele><time>2026-05-04T17:06:56.388Z</time></trkpt><trkpt lat="43.7804717" lon="11.2019433"><ele>39.666666666666664</ele><time>2026-05-04T17:06:58.388Z</time></trkpt><trkpt lat="43.780555" lon="11.201975"><ele>39.333333333333336</ele><time>2026-05-04T17:07:01.388Z</time></trkpt><trkpt lat="43.7806433" lon="11.202"><ele>39.0</ele><time>2026-05-04T17:07:04.388Z</time></trkpt><trkpt lat="43.7807233" lon="11.2020367"><ele>39.0</ele><time>2026-05-04T17:07:07.388Z</time></trkpt><trkpt lat="43.7808083" lon="11.20208"><ele>39.0</ele><time>2026-05-04T17:07:10.389Z</time></trkpt><trkpt lat="43.7808767" lon="11.2021183"><ele>39.0</ele><time>2026-05-04T17:07:12.388Z</time></trkpt><trkpt lat="43.7809483" lon="11.20216"><ele>39.0</ele><time>2026-05-04T17:07:15.388Z</time></trkpt><trkpt lat="43.7810167" lon="11.2022"><ele>39.0</ele><time>2026-05-04T17:07:17.389Z</time></trkpt><trkpt lat="43.78109" lon="11.2022533"><ele>39.0</ele><time>2026-05-04T17:07:19.389Z</time></trkpt><trkpt lat="43.781155" lon="11.202335"><ele>39.0</ele><time>2026-05-04T17:07:21.388Z</time></trkpt><trkpt lat="43.781215" lon="11.2024033"><ele>39.0</ele><time>2026-05-04T17:07:23.388Z</time></trkpt><trkpt lat="43.78129" lon="11.2024583"><ele>39.0</ele><time>2026-05-04T17:07:25.388Z</time></trkpt><trkpt lat="43.781365" lon="11.20252"><ele>39.0</ele><time>2026-05-04T17:07:27.388Z</time></trkpt><trkpt lat="43.78144" lon="11.2025667"><ele>39.0</ele><time>2026-05-04T17:07:29.388Z</time></trkpt><trkpt lat="43.7815033" lon="11.2026"><ele>39.0</ele><time>2026-05-04T17:07:31.388Z</time></trkpt><trkpt lat="43.78158" lon="11.2026433"><ele>39.0</ele><time>2026-05-04T17:07:33.388Z</time></trkpt><trkpt lat="43.781655" lon="11.2026867"><ele>39.0</ele><time>2026-05-04T17:07:35.388Z</time></trkpt><trkpt lat="43.781735" lon="11.202725"><ele>39.0</ele><time>2026-05-04T17:07:37.388Z</time></trkpt><trkpt lat="43.7818183" lon="11.202765"><ele>39.0</ele><time>2026-05-04T17:07:39.388Z</time></trkpt><trkpt lat="43.7819067" lon="11.20278"><ele>39.0</ele><time>2026-05-04T17:07:41.388Z</time></trkpt><trkpt lat="43.7819867" lon="11.2028117"><ele>39.0</ele><time>2026-05-04T17:07:43.388Z</time></trkpt><trkpt lat="43.7820533" lon="11.2028383"><ele>38.85714285714286</ele><time>2026-05-04T17:07:45.388Z</time></trkpt><trkpt lat="43.7821233" lon="11.2028717"><ele>38.71428571428571</ele><time>2026-05-04T17:07:48.388Z</time></trkpt><trkpt lat="43.7821717" lon="11.2029483"><ele>38.57142857142857</ele><time>2026-05-04T17:07:53.388Z</time></trkpt><trkpt lat="43.7821717" lon="11.2030433"><ele>38.42857142857143</ele><time>2026-05-04T17:07:56.388Z</time></trkpt><trkpt lat="43.78215" lon="11.20314"><ele>38.28571428571429</ele><time>2026-05-04T17:07:59.388Z</time></trkpt><trkpt lat="43.7821267" lon="11.2032417"><ele>38.14285714285714</ele><time>2026-05-04T17:08:02.388Z</time></trkpt><trkpt lat="43.782125" lon="11.20335"><ele>38.0</ele><time>2026-05-04T17:08:05.388Z</time></trkpt><trkpt lat="43.7820983" lon="11.2034567"><ele>38.0</ele><time>2026-05-04T17:08:08.388Z</time></trkpt><trkpt lat="43.782075" lon="11.2035533"><ele>38.0</ele><time>2026-05-04T17:08:10.388Z</time></trkpt><trkpt lat="43.7820467" lon="11.2036433"><ele>38.0</ele><time>2026-05-04T17:08:12.388Z</time></trkpt><trkpt lat="43.7820183" lon="11.2037217"><ele>38.0</ele><time>2026-05-04T17:08:14.388Z</time></trkpt><trkpt lat="43.7819767" lon="11.2038267"><ele>38.0</ele><time>2026-05-04T17:08:17.388Z</time></trkpt><trkpt lat="43.7819417" lon="11.203945"><ele>38.0</ele><time>2026-05-04T17:08:20.388Z</time></trkpt><trkpt lat="43.781915" lon="11.2040417"><ele>38.166666666666664</ele><time>2026-05-04T17:08:22.388Z</time></trkpt><trkpt lat="43.78191" lon="11.2041367"><ele>38.33333333333333</ele><time>2026-05-04T17:08:24.388Z</time></trkpt><trkpt lat="43.7818983" lon="11.20426"><ele>38.5</ele><time>2026-05-04T17:08:26.389Z</time></trkpt><trkpt lat="43.781895" lon="11.204375"><ele>38.666666666666664</ele><time>2026-05-04T17:08:28.388Z</time></trkpt><trkpt lat="43.7819" lon="11.204495"><ele>38.833333333333336</ele><time>2026-05-04T17:08:31.388Z</time></trkpt><trkpt lat="43.7819417" lon="11.2046283"><ele>39.0</ele><time>2026-05-04T17:08:34.388Z</time></trkpt><trkpt lat="43.78198" lon="11.2047167"><ele>39.0</ele><time>2026-05-04T17:08:36.388Z</time></trkpt><trkpt lat="43.782045" lon="11.2047267"><ele>39.0</ele><time>2026-05-04T17:08:39.388Z</time></trkpt><trkpt lat="43.7820933" lon="11.204655"><ele>39.0</ele><time>2026-05-04T17:08:41.388Z</time></trkpt><trkpt lat="43.78213" lon="11.2045417"><ele>39.0</ele><time>2026-05-04T17:08:43.389Z</time></trkpt><trkpt lat="43.78216" lon="11.2044133"><ele>39.0</ele><time>2026-05-04T17:08:45.388Z</time></trkpt><trkpt lat="43.78218" lon="11.2042933"><ele>39.0</ele><time>2026-05-04T17:08:47.388Z</time></trkpt><trkpt lat="43.782205" lon="11.2041883"><ele>39.0</ele><time>2026-05-04T17:08:49.388Z</time></trkpt><trkpt lat="43.782235" lon="11.2040867"><ele>39.0</ele><time>2026-05-04T17:08:51.388Z</time></trkpt><trkpt lat="43.7822883" lon="11.2040083"><ele>39.0</ele><time>2026-05-04T17:08:53.388Z</time></trkpt><trkpt lat="43.7823467" lon="11.2039633"><ele>39.0</ele><time>2026-05-04T17:08:55.388Z</time></trkpt><trkpt lat="43.78242" lon="11.2039733"><ele>39.0</ele><time>2026-05-04T17:08:57.388Z</time></trkpt><trkpt lat="43.78249" lon="11.2039983"><ele>39.0</ele><time>2026-05-04T17:08:59.388Z</time></trkpt><trkpt lat="43.7825717" lon="11.2040367"><ele>39.0</ele><time>2026-05-04T17:09:02.388Z</time></trkpt><trkpt lat="43.78264" lon="11.20407"><ele>39.0</ele><time>2026-05-04T17:09:04.388Z</time></trkpt><trkpt lat="43.7827233" lon="11.2041117"><ele>39.0</ele><time>2026-05-04T17:09:06.388Z</time></trkpt><trkpt lat="43.7828083" lon="11.204155"><ele>39.0</ele><time>2026-05-04T17:09:08.388Z</time></trkpt><trkpt lat="43.7828917" lon="11.2041967"><ele>39.0</ele><time>2026-05-04T17:09:10.388Z</time></trkpt><trkpt lat="43.7829567" lon="11.2042283"><ele>39.0</ele><time>2026-05-04T17:09:12.388Z</time></trkpt><trkpt lat="43.7830183" lon="11.2042567"><ele>39.166666666666664</ele><time>2026-05-04T17:09:14.388Z</time></trkpt><trkpt lat="43.7831067" lon="11.2042467"><ele>39.333333333333336</ele><time>2026-05-04T17:09:16.388Z</time></trkpt><trkpt lat="43.783185" lon="11.2042517"><ele>39.5</ele><time>2026-05-04T17:09:18.388Z</time></trkpt><trkpt lat="43.78328" lon="11.2042833"><ele>39.66666666666667</ele><time>2026-05-04T17:09:21.388Z</time></trkpt><trkpt lat="43.783355" lon="11.2043167"><ele>39.833333333333336</ele><time>2026-05-04T17:09:23.388Z</time></trkpt><trkpt lat="43.7834217" lon="11.204345"><ele>40.0</ele><time>2026-05-04T17:09:25.388Z</time></trkpt><trkpt lat="43.7834883" lon="11.2043717"><ele>40.0</ele><time>2026-05-04T17:09:27.388Z</time></trkpt><trkpt lat="43.7835783" lon="11.2044083"><ele>40.0</ele><time>2026-05-04T17:09:30.388Z</time></trkpt><trkpt lat="43.7836517" lon="11.2044417"><ele>40.0</ele><time>2026-05-04T17:09:32.388Z</time></trkpt><trkpt lat="43.78374" lon="11.2044767"><ele>40.0</ele><time>2026-05-04T17:09:35.388Z</time></trkpt><trkpt lat="43.7838083" lon="11.2045317"><ele>40.0</ele><time>2026-05-04T17:09:38.388Z</time></trkpt><trkpt lat="43.7838833" lon="11.20459"><ele>40.0</ele><time>2026-05-04T17:09:41.388Z</time></trkpt><trkpt lat="43.783965" lon="11.20465"><ele>40.0</ele><time>2026-05-04T17:09:44.388Z</time></trkpt><trkpt lat="43.7840217" lon="11.2046967"><ele>40.0</ele><time>2026-05-04T17:09:47.388Z</time></trkpt><trkpt lat="43.7841" lon="11.204755"><ele>40.0</ele><time>2026-05-04T17:09:50.388Z</time></trkpt><trkpt lat="43.7841917" lon="11.2047667"><ele>40.0</ele><time>2026-05-04T17:09:53.388Z</time></trkpt><trkpt lat="43.7842517" lon="11.2047983"><ele>40.0</ele><time>2026-05-04T17:09:55.388Z</time></trkpt><trkpt lat="43.7843467" lon="11.20485"><ele>40.0</ele><time>2026-05-04T17:09:58.388Z</time></trkpt><trkpt lat="43.7844183" lon="11.20485"><ele>39.833333333333336</ele><time>2026-05-04T17:10:00.389Z</time></trkpt><trkpt lat="43.7845" lon="11.20488"><ele>39.66666666666667</ele><time>2026-05-04T17:10:02.388Z</time></trkpt><trkpt lat="43.784565" lon="11.2049017"><ele>39.5</ele><time>2026-05-04T17:10:05.388Z</time></trkpt><trkpt lat="43.784645" lon="11.20491"><ele>39.333333333333336</ele><time>2026-05-04T17:10:07.388Z</time></trkpt><trkpt lat="43.7847383" lon="11.2049483"><ele>39.166666666666664</ele><time>2026-05-04T17:10:09.388Z</time></trkpt><trkpt lat="43.7848333" lon="11.2049867"><ele>39.0</ele><time>2026-05-04T17:10:11.388Z</time></trkpt><trkpt lat="43.784905" lon="11.2050017"><ele>39.0</ele><time>2026-05-04T17:10:14.388Z</time></trkpt><trkpt lat="43.784985" lon="11.2049817"><ele>39.0</ele><time>2026-05-04T17:10:17.388Z</time></trkpt><trkpt lat="43.7849683" lon="11.2050967"><ele>39.0</ele><time>2026-05-04T17:10:23.389Z</time></trkpt><trkpt lat="43.7849317" lon="11.20517"><ele>39.0</ele><time>2026-05-04T17:10:25.388Z</time></trkpt><trkpt lat="43.7848867" lon="11.20525"><ele>39.0</ele><time>2026-05-04T17:10:27.388Z</time></trkpt><trkpt lat="43.7848483" lon="11.2053267"><ele>39.0</ele><time>2026-05-04T17:10:29.388Z</time></trkpt><trkpt lat="43.7848117" lon="11.2054417"><ele>39.0</ele><time>2026-05-04T17:10:32.388Z</time></trkpt><trkpt lat="43.7847833" lon="11.2055417"><ele>39.0</ele><time>2026-05-04T17:10:34.388Z</time></trkpt><trkpt lat="43.784745" lon="11.205655"><ele>39.0</ele><time>2026-05-04T17:10:37.388Z</time></trkpt><trkpt lat="43.7847117" lon="11.20573"><ele>39.0</ele><time>2026-05-04T17:10:39.388Z</time></trkpt><trkpt lat="43.784675" lon="11.2058117"><ele>39.0</ele><time>2026-05-04T17:10:41.388Z</time></trkpt><trkpt lat="43.7846317" lon="11.2058983"><ele>39.0</ele><time>2026-05-04T17:10:43.388Z</time></trkpt><trkpt lat="43.7845867" lon="11.20598"><ele>39.166666666666664</ele><time>2026-05-04T17:10:45.388Z</time></trkpt><trkpt lat="43.7845383" lon="11.20607"><ele>39.333333333333336</ele><time>2026-05-04T17:10:47.388Z</time></trkpt><trkpt lat="43.7845017" lon="11.20617"><ele>39.5</ele><time>2026-05-04T17:10:49.388Z</time></trkpt><trkpt lat="43.7844533" lon="11.206265"><ele>39.66666666666667</ele><time>2026-05-04T17:10:51.389Z</time></trkpt><trkpt lat="43.7844133" lon="11.2063417"><ele>39.833333333333336</ele><time>2026-05-04T17:10:53.388Z</time></trkpt><trkpt lat="43.784375" lon="11.2064183"><ele>40.0</ele><time>2026-05-04T17:10:55.388Z</time></trkpt><trkpt lat="43.78433" lon="11.2064983"><ele>40.0</ele><time>2026-05-04T17:10:57.388Z</time></trkpt><trkpt lat="43.7842733" lon="11.20658"><ele>40.0</ele><time>2026-05-04T17:10:59.388Z</time></trkpt><trkpt lat="43.78423" lon="11.2066567"><ele>40.0</ele><time>2026-05-04T17:11:01.388Z</time></trkpt><trkpt lat="43.7841883" lon="11.2067533"><ele>40.0</ele><time>2026-05-04T17:11:04.388Z</time></trkpt><trkpt lat="43.784145" lon="11.20683"><ele>40.0</ele><time>2026-05-04T17:11:06.388Z</time></trkpt><trkpt lat="43.7840733" lon="11.206935"><ele>40.0</ele><time>2026-05-04T17:11:08.388Z</time></trkpt><trkpt lat="43.7840317" lon="11.2070333"><ele>40.0</ele><time>2026-05-04T17:11:10.388Z</time></trkpt><trkpt lat="43.7839967" lon="11.2071383"><ele>40.0</ele><time>2026-05-04T17:11:12.388Z</time></trkpt><trkpt lat="43.7839483" lon="11.2072717"><ele>40.0</ele><time>2026-05-04T17:11:14.388Z</time></trkpt><trkpt lat="43.7839033" lon="11.2073617"><ele>40.0</ele><time>2026-05-04T17:11:16.388Z</time></trkpt><trkpt lat="43.7838667" lon="11.2074383"><ele>40.0</ele><time>2026-05-04T17:11:18.388Z</time></trkpt><trkpt lat="43.7838117" lon="11.2075517"><ele>40.0</ele><time>2026-05-04T17:11:21.388Z</time></trkpt><trkpt lat="43.7837733" lon="11.2076517"><ele>39.66666666666667</ele><time>2026-05-04T17:11:23.388Z</time></trkpt><trkpt lat="43.78373" lon="11.207745"><ele>39.333333333333336</ele><time>2026-05-04T17:11:25.388Z</time></trkpt><trkpt lat="43.7836783" lon="11.20785"><ele>39.0</ele><time>2026-05-04T17:11:27.388Z</time></trkpt><trkpt lat="43.7836383" lon="11.2079617"><ele>38.666666666666664</ele><time>2026-05-04T17:11:29.388Z</time></trkpt><trkpt lat="43.7836183" lon="11.2080567"><ele>38.33333333333333</ele><time>2026-05-04T17:11:31.389Z</time></trkpt><trkpt lat="43.78359" lon="11.2081533"><ele>38.0</ele><time>2026-05-04T17:11:33.388Z</time></trkpt><trkpt lat="43.7835633" lon="11.2082483"><ele>38.5</ele><time>2026-05-04T17:11:35.389Z</time></trkpt><trkpt lat="43.7835133" lon="11.2083417"><ele>39.0</ele><time>2026-05-04T17:11:37.388Z</time></trkpt><trkpt lat="43.78346" lon="11.2084317"><ele>39.5</ele><time>2026-05-04T17:11:39.388Z</time></trkpt><trkpt lat="43.7834133" lon="11.2085367"><ele>40.0</ele><time>2026-05-04T17:11:41.389Z</time></trkpt><trkpt lat="43.7833667" lon="11.2086583"><ele>40.5</ele><time>2026-05-04T17:11:43.388Z</time></trkpt><trkpt lat="43.783335" lon="11.2087733"><ele>41.0</ele><time>2026-05-04T17:11:45.388Z</time></trkpt><trkpt lat="43.7833" lon="11.20888"><ele>40.599999999999994</ele><time>2026-05-04T17:11:47.389Z</time></trkpt><trkpt lat="43.78326" lon="11.209005"><ele>40.199999999999996</ele><time>2026-05-04T17:11:49.388Z</time></trkpt><trkpt lat="43.783215" lon="11.2091467"><ele>39.8</ele><time>2026-05-04T17:11:51.389Z</time></trkpt><trkpt lat="43.78317" lon="11.2092617"><ele>39.4</ele><time>2026-05-04T17:11:53.388Z</time></trkpt><trkpt lat="43.78313" lon="11.2093567"><ele>39.0</ele><time>2026-05-04T17:11:55.388Z</time></trkpt><trkpt lat="43.7830833" lon="11.20945"><ele>39.0</ele><time>2026-05-04T17:11:57.388Z</time></trkpt><trkpt lat="43.7830433" lon="11.209545"><ele>39.0</ele><time>2026-05-04T17:11:59.389Z</time></trkpt><trkpt lat="43.7829967" lon="11.2096283"><ele>39.0</ele><time>2026-05-04T17:12:01.388Z</time></trkpt><trkpt lat="43.7829417" lon="11.2097167"><ele>39.0</ele><time>2026-05-04T17:12:03.388Z</time></trkpt><trkpt lat="43.782895" lon="11.2098017"><ele>39.0</ele><time>2026-05-04T17:12:05.388Z</time></trkpt><trkpt lat="43.7828533" lon="11.2099017"><ele>39.0</ele><time>2026-05-04T17:12:07.388Z</time></trkpt><trkpt lat="43.78281" lon="11.210005"><ele>39.166666666666664</ele><time>2026-05-04T17:12:09.388Z</time></trkpt><trkpt lat="43.7827733" lon="11.210105"><ele>39.333333333333336</ele><time>2026-05-04T17:12:11.388Z</time></trkpt><trkpt lat="43.7827283" lon="11.2102133"><ele>39.5</ele><time>2026-05-04T17:12:13.388Z</time></trkpt><trkpt lat="43.7826967" lon="11.2103117"><ele>39.66666666666667</ele><time>2026-05-04T17:12:15.388Z</time></trkpt><trkpt lat="43.7826517" lon="11.2104117"><ele>39.833333333333336</ele><time>2026-05-04T17:12:17.388Z</time></trkpt><trkpt lat="43.78261" lon="11.2105"><ele>40.0</ele><time>2026-05-04T17:12:19.389Z</time></trkpt><trkpt lat="43.7825717" lon="11.210575"><ele>39.5</ele><time>2026-05-04T17:12:21.388Z</time></trkpt><trkpt lat="43.7825167" lon="11.2106717"><ele>39.0</ele><time>2026-05-04T17:12:24.388Z</time></trkpt><trkpt lat="43.7824533" lon="11.21078"><ele>38.5</ele><time>2026-05-04T17:12:27.388Z</time></trkpt><trkpt lat="43.7824133" lon="11.210875"><ele>38.0</ele><time>2026-05-04T17:12:29.388Z</time></trkpt><trkpt lat="43.7823733" lon="11.210985"><ele>37.5</ele><time>2026-05-04T17:12:31.388Z</time></trkpt><trkpt lat="43.78233" lon="11.2110933"><ele>37.0</ele><time>2026-05-04T17:12:33.388Z</time></trkpt><trkpt lat="43.7822867" lon="11.2112017"><ele>37.0</ele><time>2026-05-04T17:12:35.387Z</time></trkpt><trkpt lat="43.7822483" lon="11.2113183"><ele>37.0</ele><time>2026-05-04T17:12:37.387Z</time></trkpt><trkpt lat="43.7822267" lon="11.2114283"><ele>37.0</ele><time>2026-05-04T17:12:39.387Z</time></trkpt><trkpt lat="43.7822" lon="11.2115267"><ele>37.0</ele><time>2026-05-04T17:12:41.387Z</time></trkpt><trkpt lat="43.7821667" lon="11.2116333"><ele>37.0</ele><time>2026-05-04T17:12:43.387Z</time></trkpt><trkpt lat="43.78213" lon="11.2117467"><ele>37.0</ele><time>2026-05-04T17:12:45.387Z</time></trkpt><trkpt lat="43.7820917" lon="11.211845"><ele>37.333333333333336</ele><time>2026-05-04T17:12:47.388Z</time></trkpt><trkpt lat="43.7820467" lon="11.2119433"><ele>37.66666666666667</ele><time>2026-05-04T17:12:49.387Z</time></trkpt><trkpt lat="43.781995" lon="11.2120483"><ele>38.0</ele><time>2026-05-04T17:12:51.387Z</time></trkpt><trkpt lat="43.7819517" lon="11.2121333"><ele>38.333333333333336</ele><time>2026-05-04T17:12:53.387Z</time></trkpt><trkpt lat="43.78191" lon="11.2122267"><ele>38.666666666666664</ele><time>2026-05-04T17:12:55.387Z</time></trkpt><trkpt lat="43.7818733" lon="11.2123183"><ele>39.0</ele><time>2026-05-04T17:12:57.387Z</time></trkpt><trkpt lat="43.781835" lon="11.21239"><ele>39.0</ele><time>2026-05-04T17:12:59.387Z</time></trkpt><trkpt lat="43.7817867" lon="11.2124517"><ele>39.0</ele><time>2026-05-04T17:13:03.387Z</time></trkpt><trkpt lat="43.7817533" lon="11.21256"><ele>39.0</ele><time>2026-05-04T17:13:07.387Z</time></trkpt><trkpt lat="43.7817333" lon="11.2126433"><ele>39.0</ele><time>2026-05-04T17:13:10.387Z</time></trkpt><trkpt lat="43.7816933" lon="11.2127117"><ele>39.0</ele><time>2026-05-04T17:13:13.387Z</time></trkpt><trkpt lat="43.78164" lon="11.21279"><ele>39.0</ele><time>2026-05-04T17:13:17.387Z</time></trkpt><trkpt lat="43.7815933" lon="11.212855"><ele>39.0</ele><time>2026-05-04T17:13:20.387Z</time></trkpt><trkpt lat="43.781545" lon="11.2129417"><ele>39.0</ele><time>2026-05-04T17:13:24.387Z</time></trkpt><trkpt lat="43.7814833" lon="11.2130283"><ele>39.0</ele><time>2026-05-04T17:13:27.388Z</time></trkpt><trkpt lat="43.781445" lon="11.2131083"><ele>39.0</ele><time>2026-05-04T17:13:29.387Z</time></trkpt><trkpt lat="43.7814133" lon="11.2131867"><ele>39.0</ele><time>2026-05-04T17:13:31.387Z</time></trkpt><trkpt lat="43.781385" lon="11.2132967"><ele>39.0</ele><time>2026-05-04T17:13:34.387Z</time></trkpt><trkpt lat="43.7813533" lon="11.2133767"><ele>39.0</ele><time>2026-05-04T17:13:36.387Z</time></trkpt><trkpt lat="43.7813133" lon="11.2134567"><ele>39.0</ele><time>2026-05-04T17:13:38.387Z</time></trkpt><trkpt lat="43.7812817" lon="11.2135433"><ele>39.142857142857146</ele><time>2026-05-04T17:13:40.387Z</time></trkpt><trkpt lat="43.7812517" lon="11.21362"><ele>39.285714285714285</ele><time>2026-05-04T17:13:42.387Z</time></trkpt><trkpt lat="43.7812167" lon="11.2137"><ele>39.42857142857143</ele><time>2026-05-04T17:13:44.388Z</time></trkpt><trkpt lat="43.7811633" lon="11.2137717"><ele>39.57142857142857</ele><time>2026-05-04T17:13:46.387Z</time></trkpt><trkpt lat="43.7811133" lon="11.21384"><ele>39.714285714285715</ele><time>2026-05-04T17:13:48.387Z</time></trkpt><trkpt lat="43.7810733" lon="11.21392"><ele>39.857142857142854</ele><time>2026-05-04T17:13:50.387Z</time></trkpt><trkpt lat="43.7810333" lon="11.2140017"><ele>40.0</ele><time>2026-05-04T17:13:52.387Z</time></trkpt><trkpt lat="43.78098" lon="11.2140933"><ele>40.0</ele><time>2026-05-04T17:13:54.387Z</time></trkpt><trkpt lat="43.7809267" lon="11.2141717"><ele>40.0</ele><time>2026-05-04T17:13:56.387Z</time></trkpt><trkpt lat="43.7808767" lon="11.2142533"><ele>40.0</ele><time>2026-05-04T17:13:58.388Z</time></trkpt><trkpt lat="43.7808233" lon="11.2143483"><ele>40.0</ele><time>2026-05-04T17:14:00.387Z</time></trkpt><trkpt lat="43.780765" lon="11.2144567"><ele>40.0</ele><time>2026-05-04T17:14:02.387Z</time></trkpt><trkpt lat="43.7807217" lon="11.21456"><ele>40.0</ele><time>2026-05-04T17:14:04.387Z</time></trkpt><trkpt lat="43.7806817" lon="11.2146633"><ele>40.0</ele><time>2026-05-04T17:14:06.387Z</time></trkpt><trkpt lat="43.780645" lon="11.2147617"><ele>40.0</ele><time>2026-05-04T17:14:08.387Z</time></trkpt><trkpt lat="43.7806" lon="11.214865"><ele>40.0</ele><time>2026-05-04T17:14:10.387Z</time></trkpt><trkpt lat="43.7805567" lon="11.2149617"><ele>40.0</ele><time>2026-05-04T17:14:12.387Z</time></trkpt><trkpt lat="43.78051" lon="11.215035"><ele>40.0</ele><time>2026-05-04T17:14:14.387Z</time></trkpt><trkpt lat="43.78046" lon="11.2151083"><ele>40.0</ele><time>2026-05-04T17:14:16.387Z</time></trkpt><trkpt lat="43.78041" lon="11.215175"><ele>39.833333333333336</ele><time>2026-05-04T17:14:18.387Z</time></trkpt><trkpt lat="43.7803617" lon="11.2152483"><ele>39.66666666666667</ele><time>2026-05-04T17:14:20.387Z</time></trkpt><trkpt lat="43.780305" lon="11.2153583"><ele>39.5</ele><time>2026-05-04T17:14:22.387Z</time></trkpt><trkpt lat="43.78026" lon="11.2154333"><ele>39.333333333333336</ele><time>2026-05-04T17:14:24.387Z</time></trkpt><trkpt lat="43.78021" lon="11.2155267"><ele>39.166666666666664</ele><time>2026-05-04T17:14:26.387Z</time></trkpt><trkpt lat="43.7801733" lon="11.2156167"><ele>39.0</ele><time>2026-05-04T17:14:28.387Z</time></trkpt><trkpt lat="43.7801367" lon="11.215705"><ele>39.666666666666664</ele><time>2026-05-04T17:14:30.387Z</time></trkpt><trkpt lat="43.7800817" lon="11.21582"><ele>40.333333333333336</ele><time>2026-05-04T17:14:33.387Z</time></trkpt><trkpt lat="43.7800317" lon="11.2159133"><ele>41.0</ele><time>2026-05-04T17:14:35.387Z</time></trkpt><trkpt lat="43.779985" lon="11.2159917"><ele>41.66666666666667</ele><time>2026-05-04T17:14:37.387Z</time></trkpt><trkpt lat="43.77994" lon="11.2160767"><ele>42.333333333333336</ele><time>2026-05-04T17:14:39.387Z</time></trkpt><trkpt lat="43.7798933" lon="11.2161583"><ele>43.0</ele><time>2026-05-04T17:14:41.387Z</time></trkpt><trkpt lat="43.7798517" lon="11.2162417"><ele>43.0</ele><time>2026-05-04T17:14:43.387Z</time></trkpt><trkpt lat="43.779815" lon="11.2163333"><ele>43.0</ele><time>2026-05-04T17:14:45.387Z</time></trkpt><trkpt lat="43.7797817" lon="11.2164433"><ele>43.0</ele><time>2026-05-04T17:14:47.387Z</time></trkpt><trkpt lat="43.7797533" lon="11.2165483"><ele>43.0</ele><time>2026-05-04T17:14:49.387Z</time></trkpt><trkpt lat="43.7797283" lon="11.21666"><ele>43.0</ele><time>2026-05-04T17:14:51.387Z</time></trkpt><trkpt lat="43.7796917" lon="11.216775"><ele>43.0</ele><time>2026-05-04T17:14:53.387Z</time></trkpt><trkpt lat="43.7796617" lon="11.2168883"><ele>42.66666666666667</ele><time>2026-05-04T17:14:55.387Z</time></trkpt><trkpt lat="43.7796367" lon="11.2170067"><ele>42.333333333333336</ele><time>2026-05-04T17:14:58.387Z</time></trkpt><trkpt lat="43.77965" lon="11.2171283"><ele>42.0</ele><time>2026-05-04T17:15:01.387Z</time></trkpt><trkpt lat="43.7796217" lon="11.217245"><ele>41.666666666666664</ele><time>2026-05-04T17:15:04.387Z</time></trkpt><trkpt lat="43.7795983" lon="11.2173267"><ele>41.33333333333333</ele><time>2026-05-04T17:15:06.387Z</time></trkpt><trkpt lat="43.7795733" lon="11.2174267"><ele>41.0</ele><time>2026-05-04T17:15:08.387Z</time></trkpt><trkpt lat="43.7795333" lon="11.2175117"><ele>40.83333333333333</ele><time>2026-05-04T17:15:10.387Z</time></trkpt><trkpt lat="43.779475" lon="11.2175967"><ele>40.666666666666664</ele><time>2026-05-04T17:15:12.387Z</time></trkpt><trkpt lat="43.7794167" lon="11.2177033"><ele>40.5</ele><time>2026-05-04T17:15:14.387Z</time></trkpt><trkpt lat="43.77939" lon="11.217805"><ele>40.333333333333336</ele><time>2026-05-04T17:15:16.387Z</time></trkpt><trkpt lat="43.7793783" lon="11.2179017"><ele>40.16666666666667</ele><time>2026-05-04T17:15:18.387Z</time></trkpt><trkpt lat="43.7793667" lon="11.218005"><ele>40.0</ele><time>2026-05-04T17:15:20.387Z</time></trkpt><trkpt lat="43.779335" lon="11.2181017"><ele>40.333333333333336</ele><time>2026-05-04T17:15:22.387Z</time></trkpt><trkpt lat="43.7793067" lon="11.2181967"><ele>40.66666666666667</ele><time>2026-05-04T17:15:24.387Z</time></trkpt><trkpt lat="43.779285" lon="11.21828"><ele>41.0</ele><time>2026-05-04T17:15:26.388Z</time></trkpt><trkpt lat="43.779255" lon="11.21838"><ele>41.333333333333336</ele><time>2026-05-04T17:15:28.387Z</time></trkpt><trkpt lat="43.7792067" lon="11.2184867"><ele>41.666666666666664</ele><time>2026-05-04T17:15:31.387Z</time></trkpt><trkpt lat="43.779145" lon="11.2185383"><ele>42.0</ele><time>2026-05-04T17:15:33.387Z</time></trkpt><trkpt lat="43.7791017" lon="11.2186333"><ele>42.0</ele><time>2026-05-04T17:15:35.387Z</time></trkpt><trkpt lat="43.7790517" lon="11.2187317"><ele>42.0</ele><time>2026-05-04T17:15:37.387Z</time></trkpt><trkpt lat="43.77901" lon="11.21883"><ele>42.0</ele><time>2026-05-04T17:15:39.387Z</time></trkpt><trkpt lat="43.7789617" lon="11.2189117"><ele>42.0</ele><time>2026-05-04T17:15:41.387Z</time></trkpt><trkpt lat="43.7789117" lon="11.2189967"><ele>42.0</ele><time>2026-05-04T17:15:43.388Z</time></trkpt><trkpt lat="43.7788717" lon="11.2190967"><ele>42.0</ele><time>2026-05-04T17:15:45.387Z</time></trkpt><trkpt lat="43.7788367" lon="11.2192017"><ele>42.0</ele><time>2026-05-04T17:15:47.387Z</time></trkpt><trkpt lat="43.7788067" lon="11.2193083"><ele>42.0</ele><time>2026-05-04T17:15:49.387Z</time></trkpt><trkpt lat="43.7787683" lon="11.2194167"><ele>42.0</ele><time>2026-05-04T17:15:51.387Z</time></trkpt><trkpt lat="43.7787183" lon="11.21953"><ele>42.0</ele><time>2026-05-04T17:15:53.387Z</time></trkpt><trkpt lat="43.7786783" lon="11.2196367"><ele>42.0</ele><time>2026-05-04T17:15:55.387Z</time></trkpt><trkpt lat="43.7786467" lon="11.2197483"><ele>42.0</ele><time>2026-05-04T17:15:57.387Z</time></trkpt><trkpt lat="43.7786133" lon="11.219845"><ele>42.0</ele><time>2026-05-04T17:15:59.387Z</time></trkpt><trkpt lat="43.77857" lon="11.2199433"><ele>42.0</ele><time>2026-05-04T17:16:01.387Z</time></trkpt><trkpt lat="43.778535" lon="11.22005"><ele>42.0</ele><time>2026-05-04T17:16:03.387Z</time></trkpt><trkpt lat="43.7785083" lon="11.22015"><ele>42.0</ele><time>2026-05-04T17:16:05.387Z</time></trkpt><trkpt lat="43.77848" lon="11.2202583"><ele>42.0</ele><time>2026-05-04T17:16:07.387Z</time></trkpt><trkpt lat="43.778445" lon="11.22036"><ele>42.0</ele><time>2026-05-04T17:16:09.387Z</time></trkpt><trkpt lat="43.7784083" lon="11.2204667"><ele>42.666666666666664</ele><time>2026-05-04T17:16:11.388Z</time></trkpt><trkpt lat="43.778365" lon="11.2205883"><ele>43.333333333333336</ele><time>2026-05-04T17:16:13.387Z</time></trkpt><trkpt lat="43.7783267" lon="11.2207"><ele>44.0</ele><time>2026-05-04T17:16:15.387Z</time></trkpt><trkpt lat="43.7782867" lon="11.22081"><ele>44.66666666666667</ele><time>2026-05-04T17:16:17.387Z</time></trkpt><trkpt lat="43.7782467" lon="11.2209083"><ele>45.333333333333336</ele><time>2026-05-04T17:16:19.387Z</time></trkpt><trkpt lat="43.7782133" lon="11.2209983"><ele>46.0</ele><time>2026-05-04T17:16:21.388Z</time></trkpt><trkpt lat="43.77818" lon="11.221095"><ele>46.0</ele><time>2026-05-04T17:16:23.387Z</time></trkpt><trkpt lat="43.7781433" lon="11.221205"><ele>46.0</ele><time>2026-05-04T17:16:25.387Z</time></trkpt><trkpt lat="43.7781033" lon="11.2213067"><ele>46.0</ele><time>2026-05-04T17:16:27.387Z</time></trkpt><trkpt lat="43.7780667" lon="11.2213967"><ele>46.0</ele><time>2026-05-04T17:16:29.387Z</time></trkpt><trkpt lat="43.778025" lon="11.221485"><ele>46.0</ele><time>2026-05-04T17:16:31.387Z</time></trkpt><trkpt lat="43.7779933" lon="11.221575"><ele>46.0</ele><time>2026-05-04T17:16:33.387Z</time></trkpt><trkpt lat="43.7779833" lon="11.2216783"><ele>46.0</ele><time>2026-05-04T17:16:35.387Z</time></trkpt><trkpt lat="43.777995" lon="11.221785"><ele>46.0</ele><time>2026-05-04T17:16:37.388Z</time></trkpt><trkpt lat="43.7779583" lon="11.2218867"><ele>46.0</ele><time>2026-05-04T17:16:40.387Z</time></trkpt><trkpt lat="43.7779267" lon="11.2219767"><ele>46.0</ele><time>2026-05-04T17:16:42.387Z</time></trkpt><trkpt lat="43.77789" lon="11.2220633"><ele>46.0</ele><time>2026-05-04T17:16:44.387Z</time></trkpt><trkpt lat="43.7778717" lon="11.2221667"><ele>46.0</ele><time>2026-05-04T17:16:46.387Z</time></trkpt><trkpt lat="43.777835" lon="11.2222567"><ele>46.0</ele><time>2026-05-04T17:16:48.388Z</time></trkpt><trkpt lat="43.7777867" lon="11.222335"><ele>46.0</ele><time>2026-05-04T17:16:50.387Z</time></trkpt><trkpt lat="43.7777417" lon="11.22242"><ele>46.0</ele><time>2026-05-04T17:16:52.387Z</time></trkpt><trkpt lat="43.777695" lon="11.2225133"><ele>46.0</ele><time>2026-05-04T17:16:54.387Z</time></trkpt><trkpt lat="43.7776567" lon="11.222615"><ele>46.0</ele><time>2026-05-04T17:16:56.387Z</time></trkpt><trkpt lat="43.7776233" lon="11.2226933"><ele>46.0</ele><time>2026-05-04T17:16:58.387Z</time></trkpt><trkpt lat="43.7775833" lon="11.2227833"><ele>46.0</ele><time>2026-05-04T17:17:00.387Z</time></trkpt><trkpt lat="43.7775567" lon="11.222895"><ele>46.0</ele><time>2026-05-04T17:17:02.387Z</time></trkpt><trkpt lat="43.7775267" lon="11.22301"><ele>46.0</ele><time>2026-05-04T17:17:04.387Z</time></trkpt><trkpt lat="43.7775033" lon="11.2231183"><ele>46.0</ele><time>2026-05-04T17:17:06.387Z</time></trkpt><trkpt lat="43.77747" lon="11.22322"><ele>46.0</ele><time>2026-05-04T17:17:08.387Z</time></trkpt><trkpt lat="43.7774367" lon="11.2233217"><ele>46.0</ele><time>2026-05-04T17:17:10.387Z</time></trkpt><trkpt lat="43.7774117" lon="11.223425"><ele>45.5</ele><time>2026-05-04T17:17:12.387Z</time></trkpt><trkpt lat="43.7773783" lon="11.2235217"><ele>45.0</ele><time>2026-05-04T17:17:14.388Z</time></trkpt><trkpt lat="43.7773433" lon="11.223615"><ele>44.5</ele><time>2026-05-04T17:17:16.387Z</time></trkpt><trkpt lat="43.7772917" lon="11.2236817"><ele>44.0</ele><time>2026-05-04T17:17:18.388Z</time></trkpt><trkpt lat="43.7772383" lon="11.2237583"><ele>43.5</ele><time>2026-05-04T17:17:20.388Z</time></trkpt><trkpt lat="43.7772" lon="11.2238467"><ele>43.0</ele><time>2026-05-04T17:17:22.388Z</time></trkpt><trkpt lat="43.7771683" lon="11.2239483"><ele>42.333333333333336</ele><time>2026-05-04T17:17:24.387Z</time></trkpt><trkpt lat="43.7771283" lon="11.2240533"><ele>41.66666666666667</ele><time>2026-05-04T17:17:26.387Z</time></trkpt><trkpt lat="43.777095" lon="11.224165"><ele>41.0</ele><time>2026-05-04T17:17:28.387Z</time></trkpt><trkpt lat="43.7770933" lon="11.2242767"><ele>40.333333333333336</ele><time>2026-05-04T17:17:30.387Z</time></trkpt><trkpt lat="43.7771133" lon="11.2243717"><ele>39.666666666666664</ele><time>2026-05-04T17:17:32.387Z</time></trkpt><trkpt lat="43.7771283" lon="11.2244567"><ele>39.0</ele><time>2026-05-04T17:17:34.387Z</time></trkpt><trkpt lat="43.777115" lon="11.224565"><ele>39.0</ele><time>2026-05-04T17:17:36.387Z</time></trkpt><trkpt lat="43.777095" lon="11.2246667"><ele>39.0</ele><time>2026-05-04T17:17:38.388Z</time></trkpt><trkpt lat="43.7770783" lon="11.2247583"><ele>39.0</ele><time>2026-05-04T17:17:40.387Z</time></trkpt><trkpt lat="43.7770533" lon="11.2248633"><ele>39.0</ele><time>2026-05-04T17:17:42.387Z</time></trkpt><trkpt lat="43.7770283" lon="11.2249683"><ele>39.0</ele><time>2026-05-04T17:17:44.387Z</time></trkpt><trkpt lat="43.777015" lon="11.2250717"><ele>39.0</ele><time>2026-05-04T17:17:46.388Z</time></trkpt><trkpt lat="43.77701" lon="11.22517"><ele>39.42857142857143</ele><time>2026-05-04T17:17:48.387Z</time></trkpt><trkpt lat="43.776995" lon="11.2252617"><ele>39.857142857142854</ele><time>2026-05-04T17:17:50.387Z</time></trkpt><trkpt lat="43.77696" lon="11.2253467"><ele>40.285714285714285</ele><time>2026-05-04T17:17:52.387Z</time></trkpt><trkpt lat="43.7769283" lon="11.2254433"><ele>40.714285714285715</ele><time>2026-05-04T17:17:54.387Z</time></trkpt><trkpt lat="43.7768983" lon="11.225535"><ele>41.14285714285714</ele><time>2026-05-04T17:17:56.387Z</time></trkpt><trkpt lat="43.776885" lon="11.2256367"><ele>41.57142857142857</ele><time>2026-05-04T17:17:58.387Z</time></trkpt><trkpt lat="43.7768533" lon="11.2257417"><ele>42.0</ele><time>2026-05-04T17:18:00.387Z</time></trkpt><trkpt lat="43.7768233" lon="11.2258383"><ele>42.166666666666664</ele><time>2026-05-04T17:18:02.387Z</time></trkpt><trkpt lat="43.77678" lon="11.2259433"><ele>42.333333333333336</ele><time>2026-05-04T17:18:04.387Z</time></trkpt><trkpt lat="43.7767467" lon="11.2260417"><ele>42.5</ele><time>2026-05-04T17:18:06.387Z</time></trkpt><trkpt lat="43.7767167" lon="11.226145"><ele>42.66666666666667</ele><time>2026-05-04T17:18:08.387Z</time></trkpt><trkpt lat="43.77669" lon="11.2262317"><ele>42.833333333333336</ele><time>2026-05-04T17:18:10.387Z</time></trkpt><trkpt lat="43.77666" lon="11.22633"><ele>43.0</ele><time>2026-05-04T17:18:12.387Z</time></trkpt><trkpt lat="43.7766283" lon="11.2264333"><ele>42.833333333333336</ele><time>2026-05-04T17:18:14.388Z</time></trkpt><trkpt lat="43.7766017" lon="11.226535"><ele>42.66666666666667</ele><time>2026-05-04T17:18:16.387Z</time></trkpt><trkpt lat="43.77657" lon="11.226645"><ele>42.5</ele><time>2026-05-04T17:18:18.387Z</time></trkpt><trkpt lat="43.776545" lon="11.2267317"><ele>42.333333333333336</ele><time>2026-05-04T17:18:20.387Z</time></trkpt><trkpt lat="43.77649" lon="11.2268183"><ele>42.166666666666664</ele><time>2026-05-04T17:18:22.387Z</time></trkpt><trkpt lat="43.77644" lon="11.2269067"><ele>42.0</ele><time>2026-05-04T17:18:24.387Z</time></trkpt><trkpt lat="43.7763917" lon="11.227"><ele>42.0</ele><time>2026-05-04T17:18:26.387Z</time></trkpt><trkpt lat="43.7763533" lon="11.2271217"><ele>42.0</ele><time>2026-05-04T17:18:29.387Z</time></trkpt><trkpt lat="43.7763117" lon="11.227215"><ele>42.0</ele><time>2026-05-04T17:18:31.387Z</time></trkpt><trkpt lat="43.7762733" lon="11.227315"><ele>42.0</ele><time>2026-05-04T17:18:33.387Z</time></trkpt><trkpt lat="43.77623" lon="11.22741"><ele>42.0</ele><time>2026-05-04T17:18:35.387Z</time></trkpt><trkpt lat="43.7762017" lon="11.2275167"><ele>42.0</ele><time>2026-05-04T17:18:37.387Z</time></trkpt><trkpt lat="43.7761817" lon="11.2276267"><ele>42.166666666666664</ele><time>2026-05-04T17:18:39.388Z</time></trkpt><trkpt lat="43.7761583" lon="11.22775"><ele>42.333333333333336</ele><time>2026-05-04T17:18:41.387Z</time></trkpt><trkpt lat="43.7761283" lon="11.2278683"><ele>42.5</ele><time>2026-05-04T17:18:43.387Z</time></trkpt><trkpt lat="43.7760967" lon="11.227985"><ele>42.66666666666667</ele><time>2026-05-04T17:18:45.387Z</time></trkpt><trkpt lat="43.7760667" lon="11.2280933"><ele>42.833333333333336</ele><time>2026-05-04T17:18:47.387Z</time></trkpt><trkpt lat="43.7760333" lon="11.22819"><ele>43.0</ele><time>2026-05-04T17:18:49.387Z</time></trkpt><trkpt lat="43.77599" lon="11.228275"><ele>43.00000000000001</ele><time>2026-05-04T17:18:51.387Z</time></trkpt><trkpt lat="43.7759617" lon="11.2283617"><ele>43.0</ele><time>2026-05-04T17:18:53.387Z</time></trkpt><trkpt lat="43.775945" lon="11.2284517"><ele>43.0</ele><time>2026-05-04T17:18:55.387Z</time></trkpt><trkpt lat="43.7759267" lon="11.22856"><ele>43.0</ele><time>2026-05-04T17:18:58.387Z</time></trkpt><trkpt lat="43.7758967" lon="11.228655"><ele>43.0</ele><time>2026-05-04T17:19:01.387Z</time></trkpt><trkpt lat="43.7758633" lon="11.22873"><ele>43.00000000000001</ele><time>2026-05-04T17:19:04.387Z</time></trkpt><trkpt lat="43.7758367" lon="11.2288133"><ele>43.0</ele><time>2026-05-04T17:19:07.387Z</time></trkpt><trkpt lat="43.7758233" lon="11.2289167"><ele>42.833333333333336</ele><time>2026-05-04T17:19:10.387Z</time></trkpt><trkpt lat="43.7758717" lon="11.2290033"><ele>42.66666666666667</ele><time>2026-05-04T17:19:13.387Z</time></trkpt><trkpt lat="43.7759183" lon="11.2290783"><ele>42.5</ele><time>2026-05-04T17:19:16.387Z</time></trkpt><trkpt lat="43.775965" lon="11.229155"><ele>42.333333333333336</ele><time>2026-05-04T17:19:19.387Z</time></trkpt><trkpt lat="43.776005" lon="11.2292283"><ele>42.166666666666664</ele><time>2026-05-04T17:19:22.387Z</time></trkpt><trkpt lat="43.7760867" lon="11.22926"><ele>42.0</ele><time>2026-05-04T17:19:26.387Z</time></trkpt><trkpt lat="43.776155" lon="11.2293267"><ele>42.0</ele><time>2026-05-04T17:19:29.387Z</time></trkpt><trkpt lat="43.776235" lon="11.2293933"><ele>42.0</ele><time>2026-05-04T17:19:32.387Z</time></trkpt><trkpt lat="43.7762867" lon="11.22945"><ele>42.0</ele><time>2026-05-04T17:19:35.387Z</time></trkpt><trkpt lat="43.77634" lon="11.2295"><ele>42.0</ele><time>2026-05-04T17:19:37.387Z</time></trkpt><trkpt lat="43.77641" lon="11.2295667"><ele>42.0</ele><time>2026-05-04T17:19:40.387Z</time></trkpt><trkpt lat="43.7764583" lon="11.2296233"><ele>42.0</ele><time>2026-05-04T17:19:43.387Z</time></trkpt><trkpt lat="43.7765133" lon="11.2296733"><ele>42.0</ele><time>2026-05-04T17:19:45.387Z</time></trkpt><trkpt lat="43.7765917" lon="11.2297133"><ele>42.0</ele><time>2026-05-04T17:19:47.387Z</time></trkpt><trkpt lat="43.7766717" lon="11.2297433"><ele>42.0</ele><time>2026-05-04T17:19:49.387Z</time></trkpt><trkpt lat="43.7767517" lon="11.2297917"><ele>42.0</ele><time>2026-05-04T17:19:51.387Z</time></trkpt><trkpt lat="43.7768217" lon="11.229885"><ele>42.0</ele><time>2026-05-04T17:19:53.387Z</time></trkpt><trkpt lat="43.776845" lon="11.2300217"><ele>42.0</ele><time>2026-05-04T17:19:55.387Z</time></trkpt><trkpt lat="43.776825" lon="11.2301767"><ele>42.25</ele><time>2026-05-04T17:19:57.387Z</time></trkpt><trkpt lat="43.7768033" lon="11.2303467"><ele>42.5</ele><time>2026-05-04T17:19:59.387Z</time></trkpt><trkpt lat="43.7767567" lon="11.2304983"><ele>42.75</ele><time>2026-05-04T17:20:01.387Z</time></trkpt><trkpt lat="43.7767133" lon="11.2306467"><ele>43.0</ele><time>2026-05-04T17:20:03.387Z</time></trkpt><trkpt lat="43.77668" lon="11.230785"><ele>43.2</ele><time>2026-05-04T17:20:05.387Z</time></trkpt><trkpt lat="43.7766283" lon="11.2309067"><ele>43.4</ele><time>2026-05-04T17:20:07.387Z</time></trkpt><trkpt lat="43.7765967" lon="11.23102"><ele>43.6</ele><time>2026-05-04T17:20:09.387Z</time></trkpt><trkpt lat="43.7765667" lon="11.231135"><ele>43.800000000000004</ele><time>2026-05-04T17:20:11.387Z</time></trkpt><trkpt lat="43.77652" lon="11.23124"><ele>44.0</ele><time>2026-05-04T17:20:13.387Z</time></trkpt><trkpt lat="43.7764833" lon="11.231345"><ele>44.0</ele><time>2026-05-04T17:20:15.387Z</time></trkpt><trkpt lat="43.77644" lon="11.2314367"><ele>44.0</ele><time>2026-05-04T17:20:17.388Z</time></trkpt><trkpt lat="43.7764067" lon="11.23154"><ele>44.0</ele><time>2026-05-04T17:20:19.387Z</time></trkpt><trkpt lat="43.7763583" lon="11.23163"><ele>44.0</ele><time>2026-05-04T17:20:21.388Z</time></trkpt><trkpt lat="43.77632" lon="11.231745"><ele>44.0</ele><time>2026-05-04T17:20:23.387Z</time></trkpt><trkpt lat="43.776285" lon="11.2318633"><ele>44.0</ele><time>2026-05-04T17:20:25.387Z</time></trkpt><trkpt lat="43.7762567" lon="11.231995"><ele>44.800000000000004</ele><time>2026-05-04T17:20:27.387Z</time></trkpt><trkpt lat="43.7762383" lon="11.232125"><ele>45.6</ele><time>2026-05-04T17:20:29.388Z</time></trkpt><trkpt lat="43.776215" lon="11.2322483"><ele>46.4</ele><time>2026-05-04T17:20:31.387Z</time></trkpt><trkpt lat="43.776185" lon="11.2323667"><ele>47.2</ele><time>2026-05-04T17:20:33.387Z</time></trkpt><trkpt lat="43.7761517" lon="11.2324817"><ele>48.0</ele><time>2026-05-04T17:20:35.387Z</time></trkpt><trkpt lat="43.7761033" lon="11.23258"><ele>48.4</ele><time>2026-05-04T17:20:37.387Z</time></trkpt><trkpt lat="43.7760683" lon="11.232685"><ele>48.8</ele><time>2026-05-04T17:20:39.387Z</time></trkpt><trkpt lat="43.776045" lon="11.23281"><ele>49.2</ele><time>2026-05-04T17:20:41.387Z</time></trkpt><trkpt lat="43.77603" lon="11.2329417"><ele>49.6</ele><time>2026-05-04T17:20:43.388Z</time></trkpt><trkpt lat="43.7759983" lon="11.2330683"><ele>50.0</ele><time>2026-05-04T17:20:45.387Z</time></trkpt><trkpt lat="43.775965" lon="11.2331717"><ele>48.833333333333336</ele><time>2026-05-04T17:20:47.387Z</time></trkpt><trkpt lat="43.775925" lon="11.2332683"><ele>47.66666666666667</ele><time>2026-05-04T17:20:49.387Z</time></trkpt><trkpt lat="43.7758983" lon="11.2333767"><ele>46.5</ele><time>2026-05-04T17:20:51.387Z</time></trkpt><trkpt lat="43.7758733" lon="11.2334817"><ele>45.333333333333336</ele><time>2026-05-04T17:20:53.387Z</time></trkpt><trkpt lat="43.7758383" lon="11.2335817"><ele>44.16666666666667</ele><time>2026-05-04T17:20:55.387Z</time></trkpt><trkpt lat="43.7758067" lon="11.2336967"><ele>43.0</ele><time>2026-05-04T17:20:57.387Z</time></trkpt><trkpt lat="43.7757783" lon="11.233795"><ele>43.0</ele><time>2026-05-04T17:20:59.387Z</time></trkpt><trkpt lat="43.77575" lon="11.2338917"><ele>43.0</ele><time>2026-05-04T17:21:01.387Z</time></trkpt><trkpt lat="43.77573" lon="11.2339883"><ele>43.0</ele><time>2026-05-04T17:21:03.388Z</time></trkpt><trkpt lat="43.77572" lon="11.234105"><ele>43.0</ele><time>2026-05-04T17:21:05.387Z</time></trkpt><trkpt lat="43.7757317" lon="11.2342317"><ele>43.0</ele><time>2026-05-04T17:21:07.387Z</time></trkpt><trkpt lat="43.77575" lon="11.234365"><ele>43.0</ele><time>2026-05-04T17:21:09.388Z</time></trkpt><trkpt lat="43.775785" lon="11.2344967"><ele>43.16666666666667</ele><time>2026-05-04T17:21:11.388Z</time></trkpt><trkpt lat="43.7758283" lon="11.2346083"><ele>43.333333333333336</ele><time>2026-05-04T17:21:13.387Z</time></trkpt><trkpt lat="43.7758767" lon="11.2347067"><ele>43.5</ele><time>2026-05-04T17:21:15.387Z</time></trkpt><trkpt lat="43.77593" lon="11.2347983"><ele>43.666666666666664</ele><time>2026-05-04T17:21:17.387Z</time></trkpt><trkpt lat="43.77597" lon="11.234905"><ele>43.83333333333333</ele><time>2026-05-04T17:21:19.387Z</time></trkpt><trkpt lat="43.775995" lon="11.2350117"><ele>44.0</ele><time>2026-05-04T17:21:21.387Z</time></trkpt><trkpt lat="43.77601" lon="11.2351167"><ele>44.0</ele><time>2026-05-04T17:21:23.387Z</time></trkpt><trkpt lat="43.77602" lon="11.2352267"><ele>44.0</ele><time>2026-05-04T17:21:25.387Z</time></trkpt><trkpt lat="43.77602" lon="11.23533"><ele>44.0</ele><time>2026-05-04T17:21:27.387Z</time></trkpt><trkpt lat="43.7760167" lon="11.2354317"><ele>44.0</ele><time>2026-05-04T17:21:29.387Z</time></trkpt><trkpt lat="43.7759983" lon="11.23554"><ele>44.0</ele><time>2026-05-04T17:21:31.387Z</time></trkpt><trkpt lat="43.775965" lon="11.2356383"><ele>44.0</ele><time>2026-05-04T17:21:33.387Z</time></trkpt><trkpt lat="43.775925" lon="11.235735"><ele>44.285714285714285</ele><time>2026-05-04T17:21:35.387Z</time></trkpt><trkpt lat="43.7758983" lon="11.2358167"><ele>44.57142857142857</ele><time>2026-05-04T17:21:37.387Z</time></trkpt><trkpt lat="43.7758633" lon="11.2359267"><ele>44.85714285714286</ele><time>2026-05-04T17:21:40.387Z</time></trkpt><trkpt lat="43.7758333" lon="11.2360483"><ele>45.14285714285714</ele><time>2026-05-04T17:21:43.387Z</time></trkpt><trkpt lat="43.7758183" lon="11.2361333"><ele>45.42857142857142</ele><time>2026-05-04T17:21:45.387Z</time></trkpt><trkpt lat="43.7758133" lon="11.2362233"><ele>45.714285714285715</ele><time>2026-05-04T17:21:47.387Z</time></trkpt><trkpt lat="43.7758117" lon="11.2363167"><ele>46.0</ele><time>2026-05-04T17:21:49.387Z</time></trkpt><trkpt lat="43.775805" lon="11.2364267"><ele>46.16666666666667</ele><time>2026-05-04T17:21:51.387Z</time></trkpt><trkpt lat="43.7757867" lon="11.236545"><ele>46.333333333333336</ele><time>2026-05-04T17:21:53.387Z</time></trkpt><trkpt lat="43.7757517" lon="11.2366533"><ele>46.5</ele><time>2026-05-04T17:21:55.387Z</time></trkpt><trkpt lat="43.7756967" lon="11.23671"><ele>46.666666666666664</ele><time>2026-05-04T17:21:57.388Z</time></trkpt><trkpt lat="43.7756217" lon="11.2367583"><ele>46.83333333333333</ele><time>2026-05-04T17:21:59.387Z</time></trkpt><trkpt lat="43.7755567" lon="11.2367583"><ele>47.0</ele><time>2026-05-04T17:22:01.387Z</time></trkpt><trkpt lat="43.775475" lon="11.2366767"><ele>47.0</ele><time>2026-05-04T17:22:04.387Z</time></trkpt><trkpt lat="43.77543" lon="11.2365983"><ele>47.0</ele><time>2026-05-04T17:22:06.387Z</time></trkpt><trkpt lat="43.7753383" lon="11.2365533"><ele>47.0</ele><time>2026-05-04T17:22:09.387Z</time></trkpt><trkpt lat="43.7752733" lon="11.2365033"><ele>47.0</ele><time>2026-05-04T17:22:11.387Z</time></trkpt><trkpt lat="43.7752133" lon="11.2364533"><ele>47.0</ele><time>2026-05-04T17:22:13.387Z</time></trkpt><trkpt lat="43.7751433" lon="11.2364083"><ele>47.0</ele><time>2026-05-04T17:22:15.388Z</time></trkpt><trkpt lat="43.7750767" lon="11.23635"><ele>47.166666666666664</ele><time>2026-05-04T17:22:17.387Z</time></trkpt><trkpt lat="43.7750067" lon="11.2363767"><ele>47.33333333333333</ele><time>2026-05-04T17:22:19.387Z</time></trkpt><trkpt lat="43.77496" lon="11.23646"><ele>47.5</ele><time>2026-05-04T17:22:21.387Z</time></trkpt><trkpt lat="43.7749233" lon="11.2365667"><ele>47.666666666666664</ele><time>2026-05-04T17:22:23.387Z</time></trkpt><trkpt lat="43.7748833" lon="11.2366667"><ele>47.833333333333336</ele><time>2026-05-04T17:22:25.388Z</time></trkpt><trkpt lat="43.7748567" lon="11.2367817"><ele>48.0</ele><time>2026-05-04T17:22:27.387Z</time></trkpt><trkpt lat="43.774835" lon="11.236875"><ele>47.99999999999999</ele><time>2026-05-04T17:22:29.387Z</time></trkpt><trkpt lat="43.77481" lon="11.2369733"><ele>48.0</ele><time>2026-05-04T17:22:31.387Z</time></trkpt><trkpt lat="43.7747883" lon="11.2370683"><ele>48.0</ele><time>2026-05-04T17:22:33.388Z</time></trkpt><trkpt lat="43.7747533" lon="11.2371417"><ele>48.0</ele><time>2026-05-04T17:22:35.387Z</time></trkpt><trkpt lat="43.7747267" lon="11.2372333"><ele>48.0</ele><time>2026-05-04T17:22:37.387Z</time></trkpt><trkpt lat="43.774695" lon="11.2373267"><ele>47.99999999999999</ele><time>2026-05-04T17:22:39.387Z</time></trkpt><trkpt lat="43.7746517" lon="11.237435"><ele>48.0</ele><time>2026-05-04T17:22:41.387Z</time></trkpt><trkpt lat="43.7746233" lon="11.2375333"><ele>48.42857142857142</ele><time>2026-05-04T17:22:43.387Z</time></trkpt><trkpt lat="43.7745917" lon="11.2376233"><ele>48.857142857142854</ele><time>2026-05-04T17:22:45.387Z</time></trkpt><trkpt lat="43.7745633" lon="11.237705"><ele>49.285714285714285</ele><time>2026-05-04T17:22:47.387Z</time></trkpt><trkpt lat="43.7745283" lon="11.2377867"><ele>49.71428571428571</ele><time>2026-05-04T17:22:49.387Z</time></trkpt><trkpt lat="43.7744933" lon="11.2378933"><ele>50.142857142857146</ele><time>2026-05-04T17:22:51.387Z</time></trkpt><trkpt lat="43.7744583" lon="11.2379817"><ele>50.57142857142857</ele><time>2026-05-04T17:22:53.387Z</time></trkpt><trkpt lat="43.7744267" lon="11.2380717"><ele>51.0</ele><time>2026-05-04T17:22:55.388Z</time></trkpt><trkpt lat="43.7744" lon="11.2381883"><ele>51.166666666666664</ele><time>2026-05-04T17:22:57.387Z</time></trkpt><trkpt lat="43.7743667" lon="11.2383"><ele>51.33333333333333</ele><time>2026-05-04T17:22:59.387Z</time></trkpt><trkpt lat="43.77433" lon="11.2384217"><ele>51.5</ele><time>2026-05-04T17:23:01.387Z</time></trkpt><trkpt lat="43.7742917" lon="11.23852"><ele>51.666666666666664</ele><time>2026-05-04T17:23:03.387Z</time></trkpt><trkpt lat="43.7742517" lon="11.23863"><ele>51.83333333333333</ele><time>2026-05-04T17:23:05.387Z</time></trkpt><trkpt lat="43.7742183" lon="11.238745"><ele>52.0</ele><time>2026-05-04T17:23:07.387Z</time></trkpt><trkpt lat="43.7741933" lon="11.2388417"><ele>51.666666666666664</ele><time>2026-05-04T17:23:09.387Z</time></trkpt><trkpt lat="43.774165" lon="11.238945"><ele>51.33333333333333</ele><time>2026-05-04T17:23:11.387Z</time></trkpt><trkpt lat="43.7741383" lon="11.2390467"><ele>51.0</ele><time>2026-05-04T17:23:13.387Z</time></trkpt><trkpt lat="43.77411" lon="11.23914"><ele>50.66666666666667</ele><time>2026-05-04T17:23:15.387Z</time></trkpt><trkpt lat="43.7740883" lon="11.23923"><ele>50.333333333333336</ele><time>2026-05-04T17:23:17.387Z</time></trkpt><trkpt lat="43.7740617" lon="11.2393133"><ele>50.0</ele><time>2026-05-04T17:23:19.387Z</time></trkpt><trkpt lat="43.7740083" lon="11.2394067"><ele>50.00000000000001</ele><time>2026-05-04T17:23:22.387Z</time></trkpt><trkpt lat="43.7739733" lon="11.239485"><ele>50.0</ele><time>2026-05-04T17:23:24.387Z</time></trkpt><trkpt lat="43.7739667" lon="11.2395883"><ele>50.0</ele><time>2026-05-04T17:23:26.387Z</time></trkpt><trkpt lat="43.77394" lon="11.239685"><ele>50.0</ele><time>2026-05-04T17:23:28.387Z</time></trkpt><trkpt lat="43.7739167" lon="11.239785"><ele>50.0</ele><time>2026-05-04T17:23:30.387Z</time></trkpt><trkpt lat="43.7738833" lon="11.2398783"><ele>50.00000000000001</ele><time>2026-05-04T17:23:32.387Z</time></trkpt><trkpt lat="43.773855" lon="11.2399683"><ele>50.0</ele><time>2026-05-04T17:23:34.387Z</time></trkpt><trkpt lat="43.7738233" lon="11.2400567"><ele>50.142857142857146</ele><time>2026-05-04T17:23:36.387Z</time></trkpt><trkpt lat="43.7738033" lon="11.240145"><ele>50.285714285714285</ele><time>2026-05-04T17:23:38.387Z</time></trkpt><trkpt lat="43.7737817" lon="11.2402417"><ele>50.42857142857143</ele><time>2026-05-04T17:23:40.387Z</time></trkpt><trkpt lat="43.7737483" lon="11.2403217"><ele>50.57142857142857</ele><time>2026-05-04T17:23:42.388Z</time></trkpt><trkpt lat="43.7737167" lon="11.2404017"><ele>50.714285714285715</ele><time>2026-05-04T17:23:44.387Z</time></trkpt><trkpt lat="43.7736867" lon="11.240485"><ele>50.85714285714286</ele><time>2026-05-04T17:23:46.387Z</time></trkpt><trkpt lat="43.773655" lon="11.2405717"><ele>51.0</ele><time>2026-05-04T17:23:48.387Z</time></trkpt><trkpt lat="43.7736317" lon="11.2406617"><ele>51.0</ele><time>2026-05-04T17:23:50.387Z</time></trkpt><trkpt lat="43.7736" lon="11.2407417"><ele>51.0</ele><time>2026-05-04T17:23:52.387Z</time></trkpt><trkpt lat="43.77358" lon="11.24085"><ele>51.0</ele><time>2026-05-04T17:23:55.387Z</time></trkpt><trkpt lat="43.77356" lon="11.2409383"><ele>51.0</ele><time>2026-05-04T17:24:00.387Z</time></trkpt><trkpt lat="43.7735083" lon="11.2409933"><ele>51.0</ele><time>2026-05-04T17:24:04.387Z</time></trkpt><trkpt lat="43.773465" lon="11.2410967"><ele>51.0</ele><time>2026-05-04T17:24:08.387Z</time></trkpt><trkpt lat="43.773425" lon="11.2411833"><ele>51.0</ele><time>2026-05-04T17:24:11.387Z</time></trkpt><trkpt lat="43.7733983" lon="11.2412733"><ele>50.0</ele><time>2026-05-04T17:24:13.387Z</time></trkpt><trkpt lat="43.7733683" lon="11.241395"><ele>49.0</ele><time>2026-05-04T17:24:16.387Z</time></trkpt><trkpt lat="43.7733217" lon="11.2415133"><ele>48.0</ele><time>2026-05-04T17:24:19.387Z</time></trkpt><trkpt lat="43.7732967" lon="11.2416117"><ele>47.0</ele><time>2026-05-04T17:24:21.387Z</time></trkpt><trkpt lat="43.7732617" lon="11.2417083"><ele>46.0</ele><time>2026-05-04T17:24:23.387Z</time></trkpt><trkpt lat="43.7732233" lon="11.2418017"><ele>45.0</ele><time>2026-05-04T17:24:25.388Z</time></trkpt><trkpt lat="43.7731967" lon="11.2418933"><ele>44.857142857142854</ele><time>2026-05-04T17:24:27.388Z</time></trkpt><trkpt lat="43.7731633" lon="11.24199"><ele>44.714285714285715</ele><time>2026-05-04T17:24:29.388Z</time></trkpt><trkpt lat="43.7731383" lon="11.2420883"><ele>44.57142857142857</ele><time>2026-05-04T17:24:31.387Z</time></trkpt><trkpt lat="43.7731083" lon="11.24218"><ele>44.42857142857143</ele><time>2026-05-04T17:24:33.387Z</time></trkpt><trkpt lat="43.7730717" lon="11.2422667"><ele>44.285714285714285</ele><time>2026-05-04T17:24:35.387Z</time></trkpt><trkpt lat="43.7730433" lon="11.2423567"><ele>44.142857142857146</ele><time>2026-05-04T17:24:37.387Z</time></trkpt><trkpt lat="43.7730117" lon="11.24244"><ele>44.0</ele><time>2026-05-04T17:24:39.387Z</time></trkpt><trkpt lat="43.7729683" lon="11.2425317"><ele>45.166666666666664</ele><time>2026-05-04T17:24:41.387Z</time></trkpt><trkpt lat="43.7729333" lon="11.2426267"><ele>46.33333333333333</ele><time>2026-05-04T17:24:43.387Z</time></trkpt><trkpt lat="43.7729" lon="11.242715"><ele>47.5</ele><time>2026-05-04T17:24:45.387Z</time></trkpt><trkpt lat="43.772865" lon="11.2428183"><ele>48.666666666666664</ele><time>2026-05-04T17:24:47.387Z</time></trkpt><trkpt lat="43.7728217" lon="11.2429183"><ele>49.833333333333336</ele><time>2026-05-04T17:24:49.387Z</time></trkpt><trkpt lat="43.7727883" lon="11.2430133"><ele>51.0</ele><time>2026-05-04T17:24:51.387Z</time></trkpt><trkpt lat="43.77275" lon="11.2431183"><ele>51.5</ele><time>2026-05-04T17:24:53.387Z</time></trkpt><trkpt lat="43.7727217" lon="11.2432083"><ele>52.0</ele><time>2026-05-04T17:24:55.387Z</time></trkpt><trkpt lat="43.77267" lon="11.2433117"><ele>52.5</ele><time>2026-05-04T17:24:58.387Z</time></trkpt><trkpt lat="43.7726283" lon="11.2433833"><ele>53.0</ele><time>2026-05-04T17:25:01.387Z</time></trkpt><trkpt lat="43.7725933" lon="11.24349"><ele>53.5</ele><time>2026-05-04T17:25:13.387Z</time></trkpt><trkpt lat="43.77253" lon="11.24357"><ele>54.0</ele><time>2026-05-04T17:25:18.387Z</time></trkpt><trkpt lat="43.77249" lon="11.243665"><ele>54.166666666666664</ele><time>2026-05-04T17:25:21.387Z</time></trkpt><trkpt lat="43.7724617" lon="11.24378"><ele>54.33333333333333</ele><time>2026-05-04T17:25:24.387Z</time></trkpt><trkpt lat="43.77243" lon="11.24387"><ele>54.5</ele><time>2026-05-04T17:25:26.387Z</time></trkpt><trkpt lat="43.772395" lon="11.2439533"><ele>54.666666666666664</ele><time>2026-05-04T17:25:28.388Z</time></trkpt><trkpt lat="43.772355" lon="11.2440683"><ele>54.83333333333333</ele><time>2026-05-04T17:25:31.387Z</time></trkpt><trkpt lat="43.7723133" lon="11.2441833"><ele>55.0</ele><time>2026-05-04T17:25:34.387Z</time></trkpt><trkpt lat="43.7722667" lon="11.2442883"><ele>54.99999999999999</ele><time>2026-05-04T17:25:37.387Z</time></trkpt><trkpt lat="43.7722367" lon="11.2443683"><ele>55.0</ele><time>2026-05-04T17:25:39.387Z</time></trkpt><trkpt lat="43.7722067" lon="11.24446"><ele>55.0</ele><time>2026-05-04T17:25:41.387Z</time></trkpt><trkpt lat="43.7721767" lon="11.244545"><ele>55.0</ele><time>2026-05-04T17:25:43.387Z</time></trkpt><trkpt lat="43.77215" lon="11.24463"><ele>55.0</ele><time>2026-05-04T17:25:45.387Z</time></trkpt><trkpt lat="43.7721183" lon="11.2447183"><ele>54.99999999999999</ele><time>2026-05-04T17:25:47.387Z</time></trkpt><trkpt lat="43.7720833" lon="11.2448067"><ele>55.0</ele><time>2026-05-04T17:25:49.387Z</time></trkpt><trkpt lat="43.7720483" lon="11.2448983"><ele>54.99999999999999</ele><time>2026-05-04T17:25:51.387Z</time></trkpt><trkpt lat="43.7720117" lon="11.2449817"><ele>55.0</ele><time>2026-05-04T17:25:53.387Z</time></trkpt><trkpt lat="43.7719583" lon="11.245095"><ele>55.0</ele><time>2026-05-04T17:25:56.387Z</time></trkpt><trkpt lat="43.7719217" lon="11.2451783"><ele>55.0</ele><time>2026-05-04T17:25:58.387Z</time></trkpt><trkpt lat="43.7718833" lon="11.2452667"><ele>54.99999999999999</ele><time>2026-05-04T17:26:00.388Z</time></trkpt><trkpt lat="43.7718367" lon="11.2453417"><ele>55.0</ele><time>2026-05-04T17:26:02.387Z</time></trkpt><trkpt lat="43.77179" lon="11.2454217"><ele>54.99999999999999</ele><time>2026-05-04T17:26:04.387Z</time></trkpt><trkpt lat="43.77175" lon="11.2454983"><ele>55.0</ele><time>2026-05-04T17:26:06.387Z</time></trkpt><trkpt lat="43.771715" lon="11.2455783"><ele>55.0</ele><time>2026-05-04T17:26:08.387Z</time></trkpt><trkpt lat="43.7716833" lon="11.2456717"><ele>55.0</ele><time>2026-05-04T17:26:10.387Z</time></trkpt><trkpt lat="43.7716467" lon="11.2457467"><ele>55.0</ele><time>2026-05-04T17:26:12.387Z</time></trkpt><trkpt lat="43.7716167" lon="11.24583"><ele>54.99999999999999</ele><time>2026-05-04T17:26:14.387Z</time></trkpt><trkpt lat="43.7715817" lon="11.2459083"><ele>55.0</ele><time>2026-05-04T17:26:16.387Z</time></trkpt><trkpt lat="43.7715433" lon="11.2459917"><ele>55.28571428571428</ele><time>2026-05-04T17:26:18.387Z</time></trkpt><trkpt lat="43.7715183" lon="11.246085"><ele>55.57142857142857</ele><time>2026-05-04T17:26:20.387Z</time></trkpt><trkpt lat="43.771485" lon="11.2461783"><ele>55.857142857142854</ele><time>2026-05-04T17:26:22.388Z</time></trkpt><trkpt lat="43.7714583" lon="11.246265"><ele>56.14285714285714</ele><time>2026-05-04T17:26:24.387Z</time></trkpt><trkpt lat="43.77142" lon="11.2463467"><ele>56.42857142857142</ele><time>2026-05-04T17:26:26.387Z</time></trkpt><trkpt lat="43.77138" lon="11.2464333"><ele>56.71428571428571</ele><time>2026-05-04T17:26:28.388Z</time></trkpt><trkpt lat="43.7713433" lon="11.2465233"><ele>57.0</ele><time>2026-05-04T17:26:30.387Z</time></trkpt><trkpt lat="43.7713017" lon="11.2466167"><ele>57.0</ele><time>2026-05-04T17:26:32.387Z</time></trkpt><trkpt lat="43.7712633" lon="11.24671"><ele>57.0</ele><time>2026-05-04T17:26:34.387Z</time></trkpt><trkpt lat="43.7712317" lon="11.2468117"><ele>57.0</ele><time>2026-05-04T17:26:36.387Z</time></trkpt><trkpt lat="43.7711867" lon="11.2469067"><ele>57.0</ele><time>2026-05-04T17:26:38.387Z</time></trkpt><trkpt lat="43.7711433" lon="11.24699"><ele>57.0</ele><time>2026-05-04T17:26:40.387Z</time></trkpt><trkpt lat="43.77111" lon="11.24707"><ele>57.0</ele><time>2026-05-04T17:26:42.387Z</time></trkpt><trkpt lat="43.7710717" lon="11.2471633"><ele>57.0</ele><time>2026-05-04T17:26:44.387Z</time></trkpt><trkpt lat="43.7710317" lon="11.2472467"><ele>56.99999999999999</ele><time>2026-05-04T17:26:46.387Z</time></trkpt><trkpt lat="43.7709933" lon="11.2473317"><ele>57.0</ele><time>2026-05-04T17:26:48.387Z</time></trkpt><trkpt lat="43.7709633" lon="11.2474233"><ele>57.0</ele><time>2026-05-04T17:26:50.387Z</time></trkpt><trkpt lat="43.7709217" lon="11.2475017"><ele>56.99999999999999</ele><time>2026-05-04T17:26:52.387Z</time></trkpt><trkpt lat="43.77088" lon="11.24758"><ele>57.0</ele><time>2026-05-04T17:26:54.387Z</time></trkpt><trkpt lat="43.7708367" lon="11.247685"><ele>57.0</ele><time>2026-05-04T17:26:57.387Z</time></trkpt><trkpt lat="43.7708383" lon="11.2477917"><ele>56.5</ele><time>2026-05-04T17:27:00.388Z</time></trkpt><trkpt lat="43.7708633" lon="11.2478783"><ele>56.0</ele><time>2026-05-04T17:27:02.388Z</time></trkpt><trkpt lat="43.7709083" lon="11.2479617"><ele>55.5</ele><time>2026-05-04T17:27:04.387Z</time></trkpt><trkpt lat="43.7709567" lon="11.2480283"><ele>55.0</ele><time>2026-05-04T17:27:06.387Z</time></trkpt><trkpt lat="43.77099" lon="11.2481417"><ele>54.5</ele><time>2026-05-04T17:27:08.387Z</time></trkpt><trkpt lat="43.7709967" lon="11.2482667"><ele>54.0</ele><time>2026-05-04T17:27:10.387Z</time></trkpt><trkpt lat="43.7709567" lon="11.2483917"><ele>54.0</ele><time>2026-05-04T17:27:12.387Z</time></trkpt><trkpt lat="43.770925" lon="11.2484683"><ele>54.0</ele><time>2026-05-04T17:27:13.387Z</time></trkpt><trkpt lat="43.7709067" lon="11.2485767"><ele>54.0</ele><time>2026-05-04T17:27:15.387Z</time></trkpt><trkpt lat="43.770875" lon="11.248675"><ele>54.0</ele><time>2026-05-04T17:27:17.387Z</time></trkpt><trkpt lat="43.7708533" lon="11.248785"><ele>54.0</ele><time>2026-05-04T17:27:19.387Z</time></trkpt><trkpt lat="43.7708833" lon="11.2488917"><ele>54.0</ele><time>2026-05-04T17:27:22.388Z</time></trkpt><trkpt lat="43.7709817" lon="11.2489517"><ele>54.666666666666664</ele><time>2026-05-04T17:27:24.387Z</time></trkpt><trkpt lat="43.7710467" lon="11.2490517"><ele>55.33333333333333</ele><time>2026-05-04T17:27:26.387Z</time></trkpt><trkpt lat="43.77107" lon="11.2491417"><ele>56.0</ele><time>2026-05-04T17:27:28.387Z</time></trkpt><trkpt lat="43.77109" lon="11.2492283"><ele>56.666666666666664</ele><time>2026-05-04T17:27:30.387Z</time></trkpt><trkpt lat="43.7711483" lon="11.2493"><ele>57.33333333333333</ele><time>2026-05-04T17:27:32.387Z</time></trkpt><trkpt lat="43.7711817" lon="11.2494"><ele>58.0</ele><time>2026-05-04T17:27:34.387Z</time></trkpt><trkpt lat="43.7711967" lon="11.2494883"><ele>57.99999999999999</ele><time>2026-05-04T17:27:36.387Z</time></trkpt><trkpt lat="43.7711717" lon="11.2496117"><ele>58.0</ele><time>2026-05-04T17:27:39.387Z</time></trkpt><trkpt lat="43.7711633" lon="11.249735"><ele>58.0</ele><time>2026-05-04T17:27:43.387Z</time></trkpt><trkpt lat="43.7711833" lon="11.24985"><ele>58.0</ele><time>2026-05-04T17:27:46.387Z</time></trkpt><trkpt lat="43.7712033" lon="11.249935"><ele>57.99999999999999</ele><time>2026-05-04T17:27:48.388Z</time></trkpt><trkpt lat="43.7712283" lon="11.2500667"><ele>58.0</ele><time>2026-05-04T17:27:51.387Z</time></trkpt><trkpt lat="43.7712933" lon="11.2501583"><ele>57.83333333333333</ele><time>2026-05-04T17:27:53.387Z</time></trkpt><trkpt lat="43.7713367" lon="11.2502567"><ele>57.666666666666664</ele><time>2026-05-04T17:27:55.387Z</time></trkpt><trkpt lat="43.7713583" lon="11.2503467"><ele>57.5</ele><time>2026-05-04T17:27:57.387Z</time></trkpt><trkpt lat="43.7713683" lon="11.250445"><ele>57.33333333333333</ele><time>2026-05-04T17:27:59.387Z</time></trkpt><trkpt lat="43.7713833" lon="11.2505433"><ele>57.166666666666664</ele><time>2026-05-04T17:28:01.387Z</time></trkpt><trkpt lat="43.7713167" lon="11.250615"><ele>57.0</ele><time>2026-05-04T17:28:02.387Z</time></trkpt><trkpt lat="43.77126" lon="11.2506833"><ele>58.0</ele><time>2026-05-04T17:28:03.387Z</time></trkpt><trkpt lat="43.771225" lon="11.2507883"><ele>59.0</ele><time>2026-05-04T17:28:05.387Z</time></trkpt><trkpt lat="43.7712017" lon="11.25088"><ele>60.0</ele><time>2026-05-04T17:28:07.387Z</time></trkpt><trkpt lat="43.7712367" lon="11.251"><ele>61.0</ele><time>2026-05-04T17:28:10.387Z</time></trkpt><trkpt lat="43.7712467" lon="11.2510933"><ele>62.0</ele><time>2026-05-04T17:28:13.387Z</time></trkpt><trkpt lat="43.7712783" lon="11.2511883"><ele>63.0</ele><time>2026-05-04T17:28:16.387Z</time></trkpt><trkpt lat="43.771345" lon="11.2512367"><ele>63.0</ele><time>2026-05-04T17:28:19.387Z</time></trkpt><trkpt lat="43.7713883" lon="11.251315"><ele>63.0</ele><time>2026-05-04T17:28:22.387Z</time></trkpt><trkpt lat="43.7714783" lon="11.251385"><ele>63.0</ele><time>2026-05-04T17:28:28.387Z</time></trkpt><trkpt lat="43.77151" lon="11.2514633"><ele>63.0</ele><time>2026-05-04T17:28:31.386Z</time></trkpt><trkpt lat="43.7715317" lon="11.2515733"><ele>63.0</ele><time>2026-05-04T17:28:34.386Z</time></trkpt><trkpt lat="43.7714833" lon="11.2516717"><ele>63.0</ele><time>2026-05-04T17:28:37.386Z</time></trkpt><trkpt lat="43.7714833" lon="11.2517817"><ele>63.14285714285714</ele><time>2026-05-04T17:28:41.387Z</time></trkpt><trkpt lat="43.7714633" lon="11.25187"><ele>63.285714285714285</ele><time>2026-05-04T17:28:43.386Z</time></trkpt><trkpt lat="43.77144" lon="11.2519567"><ele>63.42857142857143</ele><time>2026-05-04T17:28:45.386Z</time></trkpt><trkpt lat="43.7715067" lon="11.2520033"><ele>63.57142857142857</ele><time>2026-05-04T17:28:47.386Z</time></trkpt><trkpt lat="43.771455" lon="11.2520917"><ele>63.71428571428571</ele><time>2026-05-04T17:28:50.386Z</time></trkpt><trkpt lat="43.7714067" lon="11.25216"><ele>63.857142857142854</ele><time>2026-05-04T17:28:53.387Z</time></trkpt><trkpt lat="43.77143" lon="11.2522517"><ele>64.0</ele><time>2026-05-04T17:28:55.386Z</time></trkpt><trkpt lat="43.7714583" lon="11.2523433"><ele>64.0</ele><time>2026-05-04T17:28:57.386Z</time></trkpt><trkpt lat="43.7714883" lon="11.2524433"><ele>63.99999999999999</ele><time>2026-05-04T17:28:59.387Z</time></trkpt><trkpt lat="43.7714833" lon="11.25254"><ele>64.0</ele><time>2026-05-04T17:29:02.386Z</time></trkpt><trkpt lat="43.7714383" lon="11.2526433"><ele>64.0</ele><time>2026-05-04T17:29:04.386Z</time></trkpt><trkpt lat="43.77144" lon="11.2527317"><ele>63.99999999999999</ele><time>2026-05-04T17:29:05.386Z</time></trkpt><trkpt lat="43.77144" lon="11.2528317"><ele>64.0</ele><time>2026-05-04T17:29:07.386Z</time></trkpt><trkpt lat="43.7714467" lon="11.25293"><ele>64.0</ele><time>2026-05-04T17:29:09.386Z</time></trkpt><trkpt lat="43.7714517" lon="11.2530533"><ele>64.5</ele><time>2026-05-04T17:29:12.386Z</time></trkpt><trkpt lat="43.7714483" lon="11.2531967"><ele>65.0</ele><time>2026-05-04T17:29:15.386Z</time></trkpt><trkpt lat="43.7714267" lon="11.2533267"><ele>65.5</ele><time>2026-05-04T17:29:17.386Z</time></trkpt><trkpt lat="43.7713917" lon="11.253425"><ele>66.0</ele><time>2026-05-04T17:29:19.386Z</time></trkpt><trkpt lat="43.7713417" lon="11.25351"><ele>66.5</ele><time>2026-05-04T17:29:20.386Z</time></trkpt><trkpt lat="43.7712733" lon="11.2535883"><ele>67.0</ele><time>2026-05-04T17:29:22.386Z</time></trkpt><trkpt lat="43.77127" lon="11.2536867"><ele>67.0</ele><time>2026-05-04T17:29:26.386Z</time></trkpt><trkpt lat="43.7712967" lon="11.2537767"><ele>67.0</ele><time>2026-05-04T17:29:29.386Z</time></trkpt><trkpt lat="43.7713267" lon="11.253865"><ele>67.0</ele><time>2026-05-04T17:29:31.386Z</time></trkpt><trkpt lat="43.7714067" lon="11.253925"><ele>67.0</ele><time>2026-05-04T17:29:33.386Z</time></trkpt><trkpt lat="43.7714833" lon="11.254025"><ele>67.0</ele><time>2026-05-04T17:29:35.386Z</time></trkpt><trkpt lat="43.771525" lon="11.2541083"><ele>67.0</ele><time>2026-05-04T17:29:37.386Z</time></trkpt><trkpt lat="43.7715633" lon="11.254185"><ele>66.5</ele><time>2026-05-04T17:29:40.386Z</time></trkpt><trkpt lat="43.771625" lon="11.2542767"><ele>66.0</ele><time>2026-05-04T17:29:46.386Z</time></trkpt><trkpt lat="43.7716833" lon="11.25431"><ele>65.5</ele><time>2026-05-04T17:29:49.386Z</time></trkpt><trkpt lat="43.7717567" lon="11.2543633"><ele>65.0</ele><time>2026-05-04T17:29:52.386Z</time></trkpt><trkpt lat="43.77182" lon="11.2543967"><ele>64.5</ele><time>2026-05-04T17:29:54.386Z</time></trkpt><trkpt lat="43.7718783" lon="11.2544517"><ele>64.0</ele><time>2026-05-04T17:29:56.386Z</time></trkpt><trkpt lat="43.7719467" lon="11.2545067"><ele>63.83333333333333</ele><time>2026-05-04T17:29:58.386Z</time></trkpt><trkpt lat="43.7720333" lon="11.2545467"><ele>63.666666666666664</ele><time>2026-05-04T17:30:00.387Z</time></trkpt><trkpt lat="43.7720933" lon="11.254605"><ele>63.5</ele><time>2026-05-04T17:30:02.386Z</time></trkpt><trkpt lat="43.7721533" lon="11.2546867"><ele>63.33333333333333</ele><time>2026-05-04T17:30:05.386Z</time></trkpt><trkpt lat="43.77212" lon="11.2547633"><ele>63.166666666666664</ele><time>2026-05-04T17:30:08.386Z</time></trkpt><trkpt lat="43.7721317" lon="11.2548533"><ele>63.0</ele><time>2026-05-04T17:30:11.386Z</time></trkpt><trkpt lat="43.7721383" lon="11.2549533"><ele>63.285714285714285</ele><time>2026-05-04T17:30:14.386Z</time></trkpt><trkpt lat="43.77215" lon="11.25505"><ele>63.57142857142857</ele><time>2026-05-04T17:30:18.386Z</time></trkpt><trkpt lat="43.77209" lon="11.25514"><ele>63.85714285714286</ele><time>2026-05-04T17:30:20.386Z</time></trkpt><trkpt lat="43.7720633" lon="11.25523"><ele>64.14285714285714</ele><time>2026-05-04T17:30:23.386Z</time></trkpt><trkpt lat="43.7720833" lon="11.2553267"><ele>64.42857142857143</ele><time>2026-05-04T17:30:26.386Z</time></trkpt><trkpt lat="43.7720783" lon="11.25543"><ele>64.71428571428572</ele><time>2026-05-04T17:30:30.386Z</time></trkpt><trkpt lat="43.7720333" lon="11.255495"><ele>65.0</ele><time>2026-05-04T17:30:31.386Z</time></trkpt><trkpt lat="43.7720117" lon="11.2556067"><ele>66.0</ele><time>2026-05-04T17:30:33.386Z</time></trkpt><trkpt lat="43.772065" lon="11.2556667"><ele>67.0</ele><time>2026-05-04T17:30:35.386Z</time></trkpt><trkpt lat="43.7721067" lon="11.2557617"><ele>68.0</ele><time>2026-05-04T17:30:37.386Z</time></trkpt><trkpt lat="43.7721117" lon="11.255855"><ele>69.0</ele><time>2026-05-04T17:30:39.386Z</time></trkpt><trkpt lat="43.7721383" lon="11.2559517"><ele>70.0</ele><time>2026-05-04T17:30:44.386Z</time></trkpt><trkpt lat="43.772175" lon="11.25604"><ele>71.0</ele><time>2026-05-04T17:30:47.386Z</time></trkpt><trkpt lat="43.7722667" lon="11.25596"><ele>71.0</ele><time>2026-05-04T17:30:48.386Z</time></trkpt><trkpt lat="43.77241" lon="11.25592"><ele>71.0</ele><time>2026-05-04T17:30:49.386Z</time></trkpt><trkpt lat="43.7725333" lon="11.25589"><ele>71.0</ele><time>2026-05-04T17:30:50.386Z</time></trkpt><trkpt lat="43.772565" lon="11.255985"><ele>71.0</ele><time>2026-05-04T17:30:58.386Z</time></trkpt><trkpt lat="43.77259" lon="11.25609"><ele>71.0</ele><time>2026-05-04T17:31:04.386Z</time></trkpt><trkpt lat="43.772565" lon="11.2561967"><ele>71.0</ele><time>2026-05-04T17:31:07.386Z</time></trkpt><trkpt lat="43.772595" lon="11.2562867"><ele>71.0</ele><time>2026-05-04T17:31:09.386Z</time></trkpt><trkpt lat="43.77263" lon="11.2564117"><ele>71.0</ele><time>2026-05-04T17:31:11.386Z</time></trkpt><trkpt lat="43.7726567" lon="11.2565217"><ele>71.0</ele><time>2026-05-04T17:31:14.386Z</time></trkpt><trkpt lat="43.7726133" lon="11.2566233"><ele>71.0</ele><time>2026-05-04T17:31:17.387Z</time></trkpt><trkpt lat="43.772625" lon="11.2567433"><ele>71.0</ele><time>2026-05-04T17:31:19.386Z</time></trkpt><trkpt lat="43.7726617" lon="11.2568683"><ele>70.5</ele><time>2026-05-04T17:31:22.386Z</time></trkpt><trkpt lat="43.7726617" lon="11.2569617"><ele>70.0</ele><time>2026-05-04T17:31:24.386Z</time></trkpt><trkpt lat="43.7726533" lon="11.257065"><ele>69.5</ele><time>2026-05-04T17:31:26.386Z</time></trkpt><trkpt lat="43.7726217" lon="11.2571633"><ele>69.0</ele><time>2026-05-04T17:31:28.386Z</time></trkpt><trkpt lat="43.7726383" lon="11.2572733"><ele>68.5</ele><time>2026-05-04T17:31:31.386Z</time></trkpt><trkpt lat="43.772675" lon="11.2573717"><ele>68.0</ele><time>2026-05-04T17:31:34.386Z</time></trkpt><trkpt lat="43.7727517" lon="11.25744"><ele>67.83333333333334</ele><time>2026-05-04T17:31:37.386Z</time></trkpt><trkpt lat="43.7728117" lon="11.2574717"><ele>67.66666666666667</ele><time>2026-05-04T17:31:39.386Z</time></trkpt><trkpt lat="43.7728767" lon="11.2575417"><ele>67.5</ele><time>2026-05-04T17:31:42.386Z</time></trkpt><trkpt lat="43.7729517" lon="11.257585"><ele>67.33333333333333</ele><time>2026-05-04T17:31:45.386Z</time></trkpt><trkpt lat="43.7730283" lon="11.25761"><ele>67.16666666666666</ele><time>2026-05-04T17:31:48.386Z</time></trkpt><trkpt lat="43.77311" lon="11.257565"><ele>67.0</ele><time>2026-05-04T17:31:51.386Z</time></trkpt><trkpt lat="43.7731767" lon="11.2575033"><ele>67.0</ele><time>2026-05-04T17:31:54.386Z</time></trkpt><trkpt lat="43.773235" lon="11.257435"><ele>67.0</ele><time>2026-05-04T17:31:57.386Z</time></trkpt><trkpt lat="43.7733067" lon="11.2573717"><ele>67.0</ele><time>2026-05-04T17:32:01.386Z</time></trkpt><trkpt lat="43.7733733" lon="11.2573217"><ele>67.0</ele><time>2026-05-04T17:32:05.386Z</time></trkpt><trkpt lat="43.77331" lon="11.2573633"><ele>67.0</ele><time>2026-05-04T17:32:24.386Z</time></trkpt><trkpt lat="43.7732317" lon="11.257405"><ele>67.0</ele><time>2026-05-04T17:32:26.386Z</time></trkpt><trkpt lat="43.7731583" lon="11.2574783"><ele>67.0</ele><time>2026-05-04T17:32:29.386Z</time></trkpt><trkpt lat="43.7731233" lon="11.257565"><ele>67.0</ele><time>2026-05-04T17:32:32.386Z</time></trkpt><trkpt lat="43.7732533" lon="11.257575"><ele>67.0</ele><time>2026-05-04T17:32:35.386Z</time></trkpt><trkpt lat="43.7733783" lon="11.2576167"><ele>67.0</ele><time>2026-05-04T17:32:39.387Z</time></trkpt><trkpt lat="43.77346" lon="11.257685"><ele>67.0</ele><time>2026-05-04T17:32:41.386Z</time></trkpt><trkpt lat="43.7735483" lon="11.2577867"><ele>66.0</ele><time>2026-05-04T17:32:43.386Z</time></trkpt><trkpt lat="43.77364" lon="11.257875"><ele>65.0</ele><time>2026-05-04T17:32:46.386Z</time></trkpt><trkpt lat="43.7737033" lon="11.2579217"><ele>64.0</ele><time>2026-05-04T17:32:47.386Z</time></trkpt><trkpt lat="43.773775" lon="11.258025"><ele>63.0</ele><time>2026-05-04T17:32:49.386Z</time></trkpt><trkpt lat="43.77383" lon="11.25809"><ele>62.0</ele><time>2026-05-04T17:32:51.386Z</time></trkpt><trkpt lat="43.7739383" lon="11.2581783"><ele>61.714285714285715</ele><time>2026-05-04T17:32:54.386Z</time></trkpt><trkpt lat="43.7739833" lon="11.2582567"><ele>61.42857142857143</ele><time>2026-05-04T17:32:56.386Z</time></trkpt><trkpt lat="43.77404" lon="11.25832"><ele>61.142857142857146</ele><time>2026-05-04T17:32:58.386Z</time></trkpt><trkpt lat="43.774095" lon="11.2583867"><ele>60.85714285714286</ele><time>2026-05-04T17:33:00.386Z</time></trkpt><trkpt lat="43.7741133" lon="11.2584733"><ele>60.57142857142857</ele><time>2026-05-04T17:33:02.386Z</time></trkpt><trkpt lat="43.774135" lon="11.25856"><ele>60.28571428571429</ele><time>2026-05-04T17:33:03.386Z</time></trkpt><trkpt lat="43.7741617" lon="11.2586467"><ele>60.0</ele><time>2026-05-04T17:33:04.386Z</time></trkpt><trkpt lat="43.7741867" lon="11.2587533"><ele>60.0</ele><time>2026-05-04T17:33:06.386Z</time></trkpt><trkpt lat="43.77423" lon="11.258855"><ele>60.0</ele><time>2026-05-04T17:33:08.386Z</time></trkpt><trkpt lat="43.7742933" lon="11.258965"><ele>60.0</ele><time>2026-05-04T17:33:10.386Z</time></trkpt><trkpt lat="43.7743433" lon="11.2590583"><ele>60.0</ele><time>2026-05-04T17:33:12.386Z</time></trkpt><trkpt lat="43.7744283" lon="11.2590883"><ele>60.0</ele><time>2026-05-04T17:33:13.386Z</time></trkpt><trkpt lat="43.7744783" lon="11.2591417"><ele>60.0</ele><time>2026-05-04T17:33:14.386Z</time></trkpt><trkpt lat="43.7745417" lon="11.259175"><ele>59.8</ele><time>2026-05-04T17:33:15.386Z</time></trkpt><trkpt lat="43.774635" lon="11.2592683"><ele>59.6</ele><time>2026-05-04T17:33:17.386Z</time></trkpt><trkpt lat="43.7747" lon="11.2593967"><ele>59.400000000000006</ele><time>2026-05-04T17:33:19.386Z</time></trkpt><trkpt lat="43.77472" lon="11.2595183"><ele>59.2</ele><time>2026-05-04T17:33:21.386Z</time></trkpt><trkpt lat="43.77477" lon="11.25958"><ele>59.0</ele><time>2026-05-04T17:33:23.386Z</time></trkpt><trkpt lat="43.7748417" lon="11.259625"><ele>59.00000000000001</ele><time>2026-05-04T17:33:26.386Z</time></trkpt><trkpt lat="43.7748917" lon="11.25972"><ele>59.0</ele><time>2026-05-04T17:33:30.386Z</time></trkpt><trkpt lat="43.7749267" lon="11.2598017"><ele>59.0</ele><time>2026-05-04T17:33:32.386Z</time></trkpt><trkpt lat="43.7749933" lon="11.2598767"><ele>59.0</ele><time>2026-05-04T17:33:35.387Z</time></trkpt><trkpt lat="43.7750783" lon="11.2599167"><ele>59.00000000000001</ele><time>2026-05-04T17:33:38.386Z</time></trkpt><trkpt lat="43.77514" lon="11.2599617"><ele>59.0</ele><time>2026-05-04T17:33:41.386Z</time></trkpt><trkpt lat="43.7752017" lon="11.2600217"><ele>59.333333333333336</ele><time>2026-05-04T17:33:44.387Z</time></trkpt><trkpt lat="43.77526" lon="11.260075"><ele>59.66666666666667</ele><time>2026-05-04T17:33:46.386Z</time></trkpt><trkpt lat="43.77532" lon="11.2601333"><ele>60.0</ele><time>2026-05-04T17:33:49.386Z</time></trkpt><trkpt lat="43.7753617" lon="11.2602167"><ele>60.33333333333333</ele><time>2026-05-04T17:33:58.386Z</time></trkpt><trkpt lat="43.77533" lon="11.2603383"><ele>60.666666666666664</ele><time>2026-05-04T17:34:02.386Z</time></trkpt><trkpt lat="43.7753333" lon="11.2604367"><ele>61.0</ele><time>2026-05-04T17:34:04.386Z</time></trkpt><trkpt lat="43.7753083" lon="11.2605267"><ele>60.99999999999999</ele><time>2026-05-04T17:34:06.386Z</time></trkpt><trkpt lat="43.77528" lon="11.2606067"><ele>61.0</ele><time>2026-05-04T17:34:08.386Z</time></trkpt><trkpt lat="43.775265" lon="11.2607233"><ele>61.0</ele><time>2026-05-04T17:34:11.386Z</time></trkpt><trkpt lat="43.7752333" lon="11.2608483"><ele>61.0</ele><time>2026-05-04T17:34:14.386Z</time></trkpt><trkpt lat="43.775195" lon="11.2609383"><ele>60.99999999999999</ele><time>2026-05-04T17:34:16.386Z</time></trkpt><trkpt lat="43.7751433" lon="11.2610333"><ele>61.0</ele><time>2026-05-04T17:34:18.386Z</time></trkpt><trkpt lat="43.7751" lon="11.261125"><ele>59.83333333333333</ele><time>2026-05-04T17:34:20.386Z</time></trkpt><trkpt lat="43.77507" lon="11.26128"><ele>58.666666666666664</ele><time>2026-05-04T17:34:22.386Z</time></trkpt><trkpt lat="43.7750383" lon="11.2613667"><ele>57.5</ele><time>2026-05-04T17:34:23.386Z</time></trkpt><trkpt lat="43.77498" lon="11.2614583"><ele>56.33333333333333</ele><time>2026-05-04T17:34:25.386Z</time></trkpt><trkpt lat="43.7749433" lon="11.261545"><ele>55.166666666666664</ele><time>2026-05-04T17:34:27.386Z</time></trkpt><trkpt lat="43.7749" lon="11.2616283"><ele>54.0</ele><time>2026-05-04T17:34:29.386Z</time></trkpt><trkpt lat="43.77484" lon="11.261725"><ele>54.0</ele><time>2026-05-04T17:34:31.386Z</time></trkpt><trkpt lat="43.7747617" lon="11.2617633"><ele>54.0</ele><time>2026-05-04T17:34:34.386Z</time></trkpt><trkpt lat="43.77468" lon="11.2618067"><ele>54.0</ele><time>2026-05-04T17:34:37.386Z</time></trkpt><trkpt lat="43.77463" lon="11.2618867"><ele>54.0</ele><time>2026-05-04T17:34:39.386Z</time></trkpt><trkpt lat="43.7745767" lon="11.2619883"><ele>54.0</ele><time>2026-05-04T17:34:42.386Z</time></trkpt><trkpt lat="43.7745433" lon="11.262085"><ele>54.0</ele><time>2026-05-04T17:34:44.386Z</time></trkpt><trkpt lat="43.7744867" lon="11.2621717"><ele>54.0</ele><time>2026-05-04T17:34:46.386Z</time></trkpt><trkpt lat="43.7744683" lon="11.2622617"><ele>54.0</ele><time>2026-05-04T17:34:48.386Z</time></trkpt><trkpt lat="43.7745031" lon="11.2624078"><ele>54.0</ele><time>2026-05-04T17:35:03.386Z</time></trkpt><trkpt lat="43.7745721" lon="11.262442"><ele>54.0</ele><time>2026-05-04T17:35:06.386Z</time></trkpt><trkpt lat="43.7745153" lon="11.2624036"><ele>54.0</ele><time>2026-05-04T17:39:10.386Z</time></trkpt><trkpt lat="43.7744596" lon="11.2624467"><ele>54.0</ele><time>2026-05-04T17:39:25.386Z</time></trkpt><trkpt lat="43.7743986" lon="11.2625803"><ele>54.333333333333336</ele><time>2026-05-04T17:39:37.386Z</time></trkpt><trkpt lat="43.7743709" lon="11.2626593"><ele>54.66666666666667</ele><time>2026-05-04T17:39:41.386Z</time></trkpt><trkpt lat="43.7743544" lon="11.2627486"><ele>55.0</ele><time>2026-05-04T17:39:52.386Z</time></trkpt><trkpt lat="43.7743261" lon="11.2628674"><ele>55.333333333333336</ele><time>2026-05-04T17:39:59.386Z</time></trkpt><trkpt lat="43.7742888" lon="11.2629536"><ele>55.66666666666667</ele><time>2026-05-04T17:40:03.386Z</time></trkpt><trkpt lat="43.7742456" lon="11.263026"><ele>56.0</ele><time>2026-05-04T17:40:10.387Z</time></trkpt><trkpt lat="43.7741399" lon="11.2629557"><ele>56.25</ele><time>2026-05-04T17:40:37.015Z</time></trkpt><trkpt lat="43.7741374" lon="11.2628518"><ele>56.5</ele><time>2026-05-04T17:43:46.275Z</time></trkpt><trkpt lat="43.7739773" lon="11.2625363"><ele>56.75</ele><time>2026-05-04T17:43:50.405Z</time></trkpt><trkpt lat="43.7739495" lon="11.2626204"><ele>57.0</ele><time>2026-05-04T17:43:53.405Z</time></trkpt><trkpt lat="43.7739736" lon="11.2627243"><ele>57.0</ele><time>2026-05-04T17:43:57.405Z</time></trkpt><trkpt lat="43.7740547" lon="11.2626677"><ele>57.0</ele><time>2026-05-04T17:46:13.405Z</time></trkpt><trkpt lat="43.774125" lon="11.2626983"><ele>57.0</ele><time>2026-05-04T17:48:31.405Z</time></trkpt><trkpt lat="43.7740458" lon="11.262747"><ele>57.0</ele><time>2026-05-04T17:50:15.405Z</time></trkpt><trkpt lat="43.7739652" lon="11.2627629"><ele>57.0</ele><time>2026-05-04T17:50:18.405Z</time></trkpt><trkpt lat="43.7740713" lon="11.262813"><ele>57.0</ele><time>2026-05-04T17:52:29.405Z</time></trkpt><trkpt lat="43.7741349" lon="11.2628316"><ele>57.0</ele><time>2026-05-04T17:52:34.405Z</time></trkpt><trkpt lat="43.7741011" lon="11.262917"><ele>57.0</ele><time>2026-05-04T17:52:38.405Z</time></trkpt><trkpt lat="43.7741631" lon="11.2628931"><ele>57.0</ele><time>2026-05-04T17:52:57.406Z</time></trkpt><trkpt lat="43.7741651" lon="11.2628052"><ele>57.0</ele><time>2026-05-04T17:53:07.405Z</time></trkpt><trkpt lat="43.7741815" lon="11.2629207"><ele>57.0</ele><time>2026-05-04T17:53:54.338Z</time></trkpt></trkseg></trk></gpx>